M I D A S
Marine Information and Data Acquisition System
Tripno 582 of the Zeeleeuw from 2003-09-03 06:16:07 to 2003-09-03 13:32:51
Back to CruiseResearch ActivitiesStationsMapUnderway DataData graphs

EquipmentUnitsComment
TimeDGPSUTC
LatitudeDGPSDM.mWGS84
LongitudeDGPSDM.mWGS84
TemperatureSBE03/SBE38deg celciusITS90
ConductivitySBE21S/mITS90
SalinitySBE21 Practical Salinity Units
ChlorophylAChelsea fluorimeterg/lCalibrated in Aceton
Missing or incorrect values are displayed as -999
Sea surface data collected by the RV Zeeleeuw from 2003-09-03 06:16:07 to 2003-09-03 13:32:51
                                                                                    Next 1000 lines
Time Latitude Longitude Temperature Conductivity Salinity ChlorophylA
2003-09-03 06:16:13 51°13.79 2°55.68 18.875701 3.828793 28.050021 4.612255
2003-09-03 06:16:19 51°13.8 2°55.67 18.807162 3.812455 27.919019 4.612255
2003-09-03 06:16:23 51°13.8 2°55.66 18.550508 3.794327 27.771598 4.612255
2003-09-03 06:16:29 51°13.81 2°55.65 18.514103 3.7821 27.670321 4.578546
2003-09-03 06:16:33 51°13.82 2°55.65 18.732334 3.761865 27.505507 4.544836
2003-09-03 06:16:39 51°13.83 2°55.64 18.749514 3.749217 27.402394 4.477418
2003-09-03 06:16:43 51°13.83 2°55.63 18.749514 3.749217 27.402394 4.477418
2003-09-03 06:16:49 51°13.85 2°55.62 18.696476 3.738784 27.316341 4.477418
2003-09-03 06:16:53 51°13.85 2°55.62 18.583963 3.679242 26.835909 4.544836
2003-09-03 06:16:59 51°13.86 2°55.61 18.648721 3.72951 27.245859 4.511127
2003-09-03 06:17:03 51°13.87 2°55.6 18.590652 3.731828 27.267491 4.544836
2003-09-03 06:17:09 51°13.88 2°55.59 18.590652 3.731828 27.267491 4.544836
2003-09-03 06:17:15 51°13.89 2°55.59 18.685963 3.744897 27.376815 4.544836
2003-09-03 06:17:19 51°13.9 2°55.58 18.764219 3.754276 27.453896 4.544836
2003-09-03 06:17:23 51°13.91 2°55.58 18.707895 3.760389 27.505908 4.578546
2003-09-03 06:17:29 51°13.92 2°55.57 18.537494 3.763656 27.530535 4.511127
2003-09-03 06:17:41 51°13.94 2°55.55 18.667241 3.765132 27.544427 4.544836
2003-09-03 06:17:45 51°13.95 2°55.55 18.700929 3.762708 27.526168 4.477418
2003-09-03 06:17:51 51°13.96 2°55.54 18.700929 3.762708 27.526168 4.477418
2003-09-03 06:17:55 51°13.97 2°55.53 18.631268 3.761127 27.513805 4.443708
2003-09-03 06:18:01 51°13.98 2°55.53 18.656724 3.763551 27.535878 4.477418
2003-09-03 06:18:05 51°13.99 2°55.52 18.586069 3.764078 27.543975 4.376289
2003-09-03 06:18:11 51°14 2°55.51 18.588051 3.765448 27.556062 4.409999
2003-09-03 06:18:15 51°14.01 2°55.51 18.554433 3.762603 27.534373 4.409999
2003-09-03 06:18:21 51°14.02 2°55.5 18.554433 3.762603 27.534373 4.409999
2003-09-03 06:18:25 51°14.03 2°55.49 18.65429 3.764289 27.550938 4.376289
2003-09-03 06:18:31 51°14.04 2°55.49 18.654207 3.761549 27.529626 4.376289
2003-09-03 06:18:35 51°14.05 2°55.48 18.58834 3.759652 27.515165 4.34258
2003-09-03 06:18:41 51°14.06 2°55.47 18.552243 3.763657 27.551051 4.477418
2003-09-03 06:18:45 51°14.07 2°55.47 18.653465 3.765976 27.57133 4.409999
2003-09-03 06:18:51 51°14.08 2°55.46 18.653547 3.77778 27.668745 4.409999
2003-09-03 06:18:55 51°14.09 2°55.45 18.653547 3.77778 27.668745 4.409999
2003-09-03 06:19:01 51°14.1 2°55.44 18.617278 3.781469 27.700669 4.409999
2003-09-03 06:19:05 51°14.11 2°55.44 18.581486 3.792957 27.793664 4.443708
2003-09-03 06:19:11 51°14.12 2°55.43 18.615297 3.803391 27.880534 4.477418
2003-09-03 06:19:15 51°14.13 2°55.42 18.515012 3.808872 27.92565 4.511127
2003-09-03 06:19:19 51°14.13 2°55.42 18.515012 3.808872 27.92565 4.511127
2003-09-03 06:19:25 51°14.15 2°55.4 18.546377 3.819518 28.012368 4.477418
2003-09-03 06:19:31 51°14.16 2°55.39 18.577026 3.827212 28.074583 4.477418
2003-09-03 06:19:35 51°14.17 2°55.39 18.580825 3.832061 28.115566 4.443708
2003-09-03 06:19:41 51°14.18 2°55.37 18.541873 3.840282 28.182599 4.443708
2003-09-03 06:19:45 51°14.19 2°55.36 18.679861 3.841653 28.19573 4.409999
2003-09-03 06:19:51 51°14.21 2°55.35 18.679861 3.841653 28.19573 4.409999
2003-09-03 06:19:55 51°14.21 2°55.33 18.644348 3.843234 28.209604 4.376289
2003-09-03 06:20:01 51°14.23 2°55.32 18.54051 3.84882 28.255176 4.34258
2003-09-03 06:20:05 51°14.24 2°55.3 18.61055 3.85251 28.285767 4.376289
2003-09-03 06:20:11 51°14.25 2°55.28 18.544187 3.855461 28.311815 4.308871
2003-09-03 06:20:15 51°14.26 2°55.27 18.612738 3.858307 28.335043 4.34258
2003-09-03 06:20:21 51°14.27 2°55.25 18.612738 3.858307 28.335043 4.34258
2003-09-03 06:20:25 51°14.28 2°55.24 18.813953 3.863894 28.38114 4.376289
2003-09-03 06:20:31 51°14.29 2°55.21 18.678376 3.863999 28.382985 4.376289
2003-09-03 06:20:35 51°14.3 2°55.2 18.507448 3.866529 28.405119 4.34258
2003-09-03 06:20:39 51°14.31 2°55.18 18.543278 3.863261 28.378438 4.275161
2003-09-03 06:20:45 51°14.32 2°55.16 18.57938 3.854513 28.306037 4.241452
2003-09-03 06:20:51 51°14.33 2°55.14 18.57938 3.854513 28.306037 4.241452
2003-09-03 06:20:55 51°14.34 2°55.12 18.604152 3.839545 28.183915 4.207742
2003-09-03 06:21:01 51°14.35 2°55.1 18.604028 3.828056 28.090224 4.072905
2003-09-03 06:21:05 51°14.36 2°55.08 18.774761 3.814353 27.980482 4.140324
2003-09-03 06:21:11 51°14.37 2°55.06 18.591767 3.801178 27.873146 4.106614
2003-09-03 06:21:15 51°14.38 2°55.04 18.585243 3.789163 27.775788 4.005486
2003-09-03 06:21:21 51°14.39 2°55.02 18.585243 3.789163 27.775788 4.005486
2003-09-03 06:21:25 51°14.4 2°55 18.596721 3.778518 27.688665 4.039195
2003-09-03 06:21:31 51°14.41 2°54.99 18.693797 3.770719 27.627605 4.072905
2003-09-03 06:21:35 51°14.42 2°54.98 18.548401 3.776515 27.67429 4.140324
2003-09-03 06:21:41 51°14.44 2°54.96 18.584748 3.781891 27.719958 4.174033
2003-09-03 06:21:45 51°14.45 2°54.95 18.537494 3.800651 27.872722 4.241452
2003-09-03 06:21:51 51°14.47 2°54.94 18.537494 3.800651 27.872722 4.241452
2003-09-03 06:21:55 51°14.48 2°54.93 18.677716 3.813721 27.981153 4.275161
2003-09-03 06:22:01 51°14.5 2°54.92 18.649051 3.836067 28.164828 4.308871
2003-09-03 06:22:05 51°14.51 2°54.91 18.693797 3.84998 28.276898 4.308871
2003-09-03 06:22:11 51°14.53 2°54.89 18.60506 3.881287 28.53061 4.409999
2003-09-03 06:22:15 51°14.54 2°54.88 18.682046 3.906481 28.739089 4.409999
2003-09-03 06:22:21 51°14.56 2°54.87 18.667984 3.93389 28.969972 4.511127
2003-09-03 06:22:25 51°14.57 2°54.86 18.667984 3.93389 28.969972 4.511127
2003-09-03 06:22:31 51°14.59 2°54.84 18.576448 3.959402 29.182607 4.544836
2003-09-03 06:22:35 51°14.6 2°54.83 18.661137 3.984388 29.389652 4.544836
2003-09-03 06:22:41 51°14.62 2°54.82 18.60861 4.020234 29.683103 4.477418
2003-09-03 06:22:45 51°14.63 2°54.81 18.829262 4.055239 29.967413 4.477418
2003-09-03 06:22:51 51°14.65 2°54.79 18.564925 4.092881 30.271681 4.443708
2003-09-03 06:22:55 51°14.66 2°54.78 18.564925 4.092881 30.271681 4.443708
2003-09-03 06:23:01 51°14.68 2°54.76 18.64212 4.110385 30.408059 4.443708
2003-09-03 06:23:05 51°14.69 2°54.75 18.679448 4.140227 30.648383 4.409999
2003-09-03 06:23:11 51°14.71 2°54.74 18.711234 4.168277 30.86981 4.376289
2003-09-03 06:23:15 51°14.72 2°54.72 18.780073 4.186415 31.012125 4.275161
2003-09-03 06:23:21 51°14.74 2°54.71 18.819756 4.207401 31.173688 4.106614
2003-09-03 06:23:25 51°14.75 2°54.7 18.819756 4.207401 31.173688 4.106614
2003-09-03 06:23:31 51°14.77 2°54.68 18.748525 4.12831 30.509797 4.005486
2003-09-03 06:23:35 51°14.78 2°54.67 18.747866 4.24136 31.435481 3.971777
2003-09-03 06:23:41 51°14.8 2°54.66 18.619218 4.254649 31.536677 3.80323
2003-09-03 06:23:45 51°14.81 2°54.65 18.616948 4.26393 31.609642 3.668392
2003-09-03 06:23:51 51°14.83 2°54.63 18.616948 4.26393 31.609642 3.668392
2003-09-03 06:23:55 51°14.85 2°54.62 18.856989 4.275109 31.697783 3.466136
2003-09-03 06:24:01 51°14.86 2°54.6 18.831525 4.28207 31.75156 3.365007
2003-09-03 06:24:05 51°14.88 2°54.59 18.864557 4.286184 31.785618 3.23017
2003-09-03 06:24:11 51°14.89 2°54.58 18.631639 4.292723 31.839773 3.129042
2003-09-03 06:24:15 51°14.91 2°54.57 18.640222 4.296942 31.873061 2.893076
2003-09-03 06:24:21 51°14.92 2°54.55 18.640222 4.296942 31.873061 2.893076
2003-09-03 06:24:25 51°14.94 2°54.54 18.607331 4.299684 31.894672 2.859366
2003-09-03 06:24:31 51°14.96 2°54.52 18.681386 4.303586 31.92645 2.690819
2003-09-03 06:24:35 51°14.97 2°54.51 18.648803 4.308016 31.960939 2.589691
2003-09-03 06:24:41 51°14.99 2°54.5 18.754704 4.310759 31.981445 2.555982
2003-09-03 06:24:45 51°15 2°54.49 18.725246 4.314872 32.013313 2.488563
2003-09-03 06:24:51 51°15.02 2°54.47 18.725246 4.314872 32.013313 2.488563
2003-09-03 06:24:55 51°15.03 2°54.46 18.728131 4.316665 32.024288 2.421144
2003-09-03 06:25:01 51°15.05 2°54.44 18.698125 4.31772 32.030252 2.286306
2003-09-03 06:25:05 51°15.06 2°54.43 18.80321 4.32215 32.063629 2.252597
2003-09-03 06:25:11 51°15.08 2°54.41 18.805433 4.326263 32.09327 2.117759
2003-09-03 06:25:15 51°15.09 2°54.4 18.676108 4.330166 32.123943 2.050341
2003-09-03 06:25:19 51°15.1 2°54.39 18.676108 4.330166 32.123943 2.050341
2003-09-03 06:25:25 51°15.12 2°54.38 18.709874 4.333541 32.14969 1.949212
2003-09-03 06:25:31 51°15.14 2°54.36 18.812307 4.338498 32.188551 1.814375
2003-09-03 06:25:35 51°15.15 2°54.35 18.778714 4.342506 32.217313 1.780665
2003-09-03 06:25:41 51°15.17 2°54.33 18.747495 4.345354 32.238688 1.679537
2003-09-03 06:25:45 51°15.18 2°54.32 18.885405 4.347886 32.257439 1.679537
2003-09-03 06:25:51 51°15.2 2°54.31 18.788514 4.349784 32.270943 1.645828
2003-09-03 06:25:55 51°15.21 2°54.3 18.788514 4.349784 32.270943 1.645828
2003-09-03 06:26:01 51°15.23 2°54.28 18.723309 4.349784 32.267032 1.645828
2003-09-03 06:26:05 51°15.24 2°54.27 18.797406 4.352527 32.288088 1.645828
2003-09-03 06:26:11 51°15.26 2°54.25 18.631433 4.354953 32.307079 1.612118
2003-09-03 06:26:15 51°15.28 2°54.24 18.805269 4.357168 32.324323 1.578409
2003-09-03 06:26:21 51°15.29 2°54.23 18.805269 4.357168 32.324323 1.578409
2003-09-03 06:26:25 51°15.31 2°54.22 18.711852 4.359277 32.340693 1.578409
2003-09-03 06:26:31 51°15.33 2°54.2 18.817863 4.359805 32.343945 1.5447
2003-09-03 06:26:35 51°15.34 2°54.19 18.855344 4.361492 32.354017 1.612118
2003-09-03 06:26:41 51°15.36 2°54.17 18.791684 4.363391 32.368076 1.645828
2003-09-03 06:26:45 51°15.37 2°54.16 18.727719 4.363602 32.366464 1.645828
2003-09-03 06:26:51 51°15.39 2°54.14 18.797324 4.364235 32.368349 1.679537
2003-09-03 06:26:55 51°15.41 2°54.13 18.797324 4.364235 32.368349 1.679537
2003-09-03 06:27:01 51°15.43 2°54.11 18.731963 4.364868 32.371355 1.679537
2003-09-03 06:27:05 51°15.44 2°54.1 18.764713 4.365078 32.368063 1.679537
2003-09-03 06:27:11 51°15.46 2°54.08 18.69693 4.367504 32.383127 1.746956
2003-09-03 06:27:15 51°15.47 2°54.07 18.895066 4.368559 32.387947 1.848084
2003-09-03 06:27:21 51°15.49 2°54.05 18.895066 4.368559 32.387947 1.848084
2003-09-03 06:27:27 51°15.51 2°54.03 18.724133 4.369403 32.393258 1.915503
2003-09-03 06:27:31 51°15.53 2°54.02 18.721331 4.36993 32.393707 1.915503
2003-09-03 06:27:35 51°15.54 2°54.01 18.884213 4.369719 32.390839 1.915503
2003-09-03 06:27:41 51°15.56 2°53.99 18.851354 4.370036 32.390661 1.915503
2003-09-03 06:27:45 51°15.57 2°53.98 18.747248 4.370036 32.391221 1.915503
2003-09-03 06:27:51 51°15.59 2°53.96 18.747248 4.370036 32.391221 1.915503
2003-09-03 06:27:55 51°15.61 2°53.95 18.709585 4.369614 32.386046 1.881794
2003-09-03 06:28:01 51°15.63 2°53.93 18.77715 4.367715 32.371439 1.949212
2003-09-03 06:28:05 51°15.64 2°53.92 18.94557 4.368032 32.375739 1.949212
2003-09-03 06:28:11 51°15.66 2°53.9 18.74733 4.367082 32.370674 1.915503
2003-09-03 06:28:15 51°15.67 2°53.89 18.74733 4.366133 32.36281 1.949212
2003-09-03 06:28:21 51°15.7 2°53.88 18.74733 4.366133 32.36281 1.949212
2003-09-03 06:28:25 51°15.71 2°53.87 18.748443 4.363918 32.347258 1.949212
2003-09-03 06:28:31 51°15.73 2°53.85 18.788432 4.363602 32.346874 2.050341
2003-09-03 06:28:35 51°15.75 2°53.84 18.749514 4.36223 32.337192 2.016631
2003-09-03 06:28:41 51°15.77 2°53.83 18.824283 4.361597 32.332509 2.08405
2003-09-03 06:28:45 51°15.78 2°53.82 18.820867 4.360965 32.327825 2.08405
2003-09-03 06:28:51 51°15.8 2°53.8 18.820867 4.360965 32.327825 2.08405
2003-09-03 06:28:55 51°15.82 2°53.79 18.68786 4.35896 32.311224 2.050341
2003-09-03 06:29:01 51°15.84 2°53.78 18.825846 4.358855 32.309233 2.08405
2003-09-03 06:29:05 51°15.85 2°53.77 18.796665 4.358011 32.301126 2.08405
2003-09-03 06:29:11 51°15.87 2°53.75 18.765948 4.358538 32.303818 2.050341
2003-09-03 06:29:15 51°15.89 2°53.74 18.904479 4.359488 32.31224 2.151469
2003-09-03 06:29:21 51°15.91 2°53.73 18.840329 4.358749 32.30389 2.117759
2003-09-03 06:29:25 51°15.92 2°53.72 18.840329 4.358749 32.30389 2.117759
2003-09-03 06:29:31 51°15.95 2°53.7 18.775955 4.359066 32.305394 1.982922
2003-09-03 06:29:35 51°15.96 2°53.69 18.880882 4.359488 32.308888 2.016631
2003-09-03 06:29:41 51°15.98 2°53.68 18.779044 4.361703 32.325557 1.949212
2003-09-03 06:29:45 51°16 2°53.66 19.084647 4.360542 32.313713 1.949212
2003-09-03 06:29:51 51°16.02 2°53.65 18.883966 4.36339 32.334503 1.982922
2003-09-03 06:29:55 51°16.03 2°53.64 18.883966 4.36339 32.334503 1.982922
2003-09-03 06:30:01 51°16.05 2°53.62 18.681592 4.363918 32.337753 1.881794
2003-09-03 06:30:05 51°16.07 2°53.61 18.754498 4.363707 32.333771 1.848084
2003-09-03 06:30:11 51°16.09 2°53.6 18.791231 4.364762 32.33971 1.915503
2003-09-03 06:30:15 51°16.1 2°53.59 18.727719 4.365078 32.339536 1.915503
2003-09-03 06:30:21 51°16.12 2°53.57 18.831648 4.366238 32.347466 1.881794
2003-09-03 06:30:25 51°16.14 2°53.56 18.831648 4.366238 32.347466 1.881794
2003-09-03 06:30:31 51°16.16 2°53.54 18.767802 4.366133 32.345475 1.848084
2003-09-03 06:30:35 51°16.17 2°53.53 18.838972 4.367504 32.356269 1.881794
2003-09-03 06:30:41 51°16.19 2°53.52 18.806627 4.368559 32.363884 1.848084
2003-09-03 06:30:45 51°16.21 2°53.51 18.808356 4.36993 32.37244 1.848084
2003-09-03 06:30:51 51°16.23 2°53.49 18.808356 4.36993 32.37244 1.848084
2003-09-03 06:30:55 51°16.24 2°53.48 18.878867 4.369719 32.369016 1.780665
2003-09-03 06:31:01 51°16.26 2°53.47 18.848557 4.371512 32.381065 1.780665
2003-09-03 06:31:05 51°16.28 2°53.46 18.980725 4.371618 32.38026 1.814375
2003-09-03 06:31:11 51°16.3 2°53.44 18.88043 4.37225 32.383822 1.746956
2003-09-03 06:31:15 51°16.31 2°53.43 18.94861 4.375098 32.40348 1.746956
2003-09-03 06:31:21 51°16.33 2°53.41 18.94861 4.375098 32.40348 1.746956
2003-09-03 06:31:25 51°16.35 2°53.4 18.850367 4.377103 32.418391 1.746956
2003-09-03 06:31:31 51°16.37 2°53.39 18.719312 4.377841 32.423944 1.679537
2003-09-03 06:31:35 51°16.38 2°53.38 18.820291 4.380056 32.43948 1.713247
2003-09-03 06:31:41 51°16.4 2°53.36 18.989551 4.380689 32.442479 1.713247
2003-09-03 06:31:45 51°16.42 2°53.35 18.825188 4.381744 32.45121 1.578409
2003-09-03 06:31:51 51°16.44 2°53.34 18.825188 4.381744 32.45121 1.578409
2003-09-03 06:31:55 51°16.45 2°53.33 18.931602 4.382377 32.455329 1.612118
2003-09-03 06:32:01 51°16.47 2°53.31 18.834322 4.383431 32.4635 1.612118
2003-09-03 06:32:05 51°16.49 2°53.3 18.803951 4.383853 32.466432 1.578409
2003-09-03 06:32:11 51°16.51 2°53.28 18.940599 4.384381 32.469117 1.578409
2003-09-03 06:32:15 51°16.52 2°53.27 18.913439 4.384908 32.472361 1.578409
2003-09-03 06:32:21 51°16.54 2°53.26 18.913439 4.384908 32.472361 1.578409
2003-09-03 06:32:33 51°16.58 2°53.22 18.845472 4.387967 32.490954 1.477281
2003-09-03 06:32:35 51°16.59 2°53.22 18.845472 4.387967 32.490954 1.477281
2003-09-03 06:32:43 51°16.62 2°53.2 18.756228 4.389127 32.498875 1.477281
2003-09-03 06:32:47 51°16.63 2°53.19 18.83605 4.391764 32.518458 1.443571
2003-09-03 06:32:53 51°16.65 2°53.17 18.917261 4.392819 32.522138 1.409862
2003-09-03 06:32:57 51°16.67 2°53.16 18.897039 4.395351 32.539161 1.342443
2003-09-03 06:33:03 51°16.69 2°53.14 18.897039 4.395351 32.539161 1.342443
2003-09-03 06:33:07 51°16.7 2°53.13 18.877511 4.396722 32.544896 1.376153
2003-09-03 06:33:11 51°16.71 2°53.12 18.851807 4.398726 32.556428 1.409862
2003-09-03 06:33:17 51°16.73 2°53.1 18.902753 4.401152 32.568641 1.409862
2003-09-03 06:33:23 51°16.75 2°53.08 18.983681 4.404844 32.591882 1.409862
2003-09-03 06:33:27 51°16.77 2°53.07 18.961876 4.408114 32.611065 1.51099
2003-09-03 06:33:33 51°16.79 2°53.05 18.961876 4.408114 32.611065 1.51099
2003-09-03 06:33:37 51°16.8 2°53.04 18.942407 4.411806 32.630361 1.51099
2003-09-03 06:33:43 51°16.82 2°53.02 18.990167 4.414759 32.644104 1.51099
2003-09-03 06:33:47 51°16.83 2°53.01 19.036418 4.419084 32.672551 1.51099
2003-09-03 06:33:51 51°16.85 2°53 19.019555 4.422671 32.692075 1.578409
2003-09-03 06:33:57 51°16.87 2°52.98 19.066893 4.425624 32.709174 1.51099
2003-09-03 06:34:03 51°16.89 2°52.96 19.066893 4.425624 32.709174 1.51099
2003-09-03 06:34:07 51°16.9 2°52.95 19.047863 4.43016 32.734277 1.578409
2003-09-03 06:34:13 51°16.92 2°52.93 19.026038 4.43132 32.733173 1.5447
2003-09-03 06:34:15 51°16.93 2°52.93 19.209331 4.434907 32.753232 1.612118
2003-09-03 06:34:23 51°16.95 2°52.9 19.159222 4.439443 32.778308 1.679537
2003-09-03 06:34:27 51°16.97 2°52.89 19.306376 4.443979 32.804499 1.679537
2003-09-03 06:34:33 51°16.98 2°52.87 19.306376 4.443979 32.804499 1.679537
2003-09-03 06:34:37 51°17 2°52.85 19.18162 4.446721 32.817567 1.746956
2003-09-03 06:34:43 51°17.02 2°52.83 19.221238 4.451468 32.844353 1.713247
2003-09-03 06:34:47 51°17.03 2°52.81 19.195129 4.454 32.859048 1.746956
2003-09-03 06:34:53 51°17.05 2°52.79 19.231058 4.457059 32.873018 1.746956
2003-09-03 06:34:57 51°17.06 2°52.78 19.203683 4.46054 32.889335 1.848084
2003-09-03 06:35:03 51°17.08 2°52.76 19.137431 4.462966 32.896383 1.848084
2003-09-03 06:35:07 51°17.09 2°52.74 19.137431 4.462966 32.896383 1.848084
2003-09-03 06:35:13 51°17.11 2°52.72 19.138128 4.464865 32.905277 1.814375
2003-09-03 06:35:17 51°17.12 2°52.7 19.408918 4.466658 32.908792 1.780665
2003-09-03 06:35:23 51°17.14 2°52.68 19.108462 4.468662 32.91855 1.881794
2003-09-03 06:35:33 51°17.17 2°52.65 19.24243 4.471933 32.933103 1.848084
2003-09-03 06:35:35 51°17.18 2°52.64 19.24243 4.471933 32.933103 1.848084
2003-09-03 06:35:43 51°17.2 2°52.61 19.176256 4.471616 32.925427 1.848084
2003-09-03 06:35:47 51°17.22 2°52.59 19.210231 4.472249 32.927825 1.949212
2003-09-03 06:35:53 51°17.23 2°52.57 19.209167 4.472776 32.928791 1.848084
2003-09-03 06:35:57 51°17.25 2°52.56 19.206302 4.472987 32.92884 1.915503
2003-09-03 06:36:03 51°17.26 2°52.53 19.167412 4.47362 32.934053 1.881794
2003-09-03 06:36:07 51°17.28 2°52.52 19.167412 4.47362 32.934053 1.881794
2003-09-03 06:36:13 51°17.29 2°52.5 19.165283 4.473093 32.926894 1.949212
2003-09-03 06:36:17 51°17.31 2°52.48 19.123174 4.473726 32.931544 1.982922
2003-09-03 06:36:23 51°17.32 2°52.46 19.185222 4.472354 32.919125 1.949212
2003-09-03 06:36:27 51°17.34 2°52.44 19.076652 4.473726 32.930418 2.016631
2003-09-03 06:36:33 51°17.36 2°52.42 19.076652 4.473726 32.930418 2.016631
2003-09-03 06:36:37 51°17.37 2°52.41 19.175478 4.473198 32.9272 2.016631
2003-09-03 06:36:43 51°17.39 2°52.38 19.169091 4.472671 32.922294 2.08405
2003-09-03 06:36:47 51°17.4 2°52.37 19.267827 4.472565 32.921988 2.117759
2003-09-03 06:36:53 51°17.42 2°52.35 19.197707 4.471405 32.915246 2.050341
2003-09-03 06:36:57 51°17.43 2°52.33 19.159754 4.471194 32.917448 2.117759
2003-09-03 06:37:03 51°17.45 2°52.31 19.123583 4.471721 32.92517 2.151469
2003-09-03 06:37:07 51°17.46 2°52.29 19.123583 4.471721 32.92517 2.151469
2003-09-03 06:37:13 51°17.48 2°52.27 19.056477 4.470456 32.918684 2.185178
2003-09-03 06:37:19 51°17.49 2°52.25 19.054836 4.469717 32.918794 2.185178
2003-09-03 06:37:23 51°17.51 2°52.23 19.12637 4.468768 32.910972 2.218888
2003-09-03 06:37:27 51°17.52 2°52.22 19.267173 4.468979 32.916089 2.185178
2003-09-03 06:37:33 51°17.54 2°52.19 19.267173 4.468979 32.916089 2.185178
2003-09-03 06:37:37 51°17.55 2°52.18 19.170892 4.467502 32.906173 2.151469
2003-09-03 06:37:43 51°17.57 2°52.16 19.076119 4.467924 32.913592 2.185178
2003-09-03 06:37:47 51°17.58 2°52.14 19.152218 4.466764 32.905719 2.151469
2003-09-03 06:37:53 51°17.6 2°52.12 19.19476 4.465498 32.896976 2.151469
2003-09-03 06:37:57 51°17.61 2°52.1 19.101454 4.466342 32.90562 2.151469
2003-09-03 06:38:03 51°17.63 2°52.08 19.101454 4.466342 32.90562 2.151469
2003-09-03 06:38:07 51°17.64 2°52.06 19.273429 4.466342 32.905057 2.151469
2003-09-03 06:38:13 51°17.66 2°52.04 19.280543 4.466553 32.902854 2.117759
2003-09-03 06:38:17 51°17.67 2°52.03 19.18162 4.466974 32.904642 2.117759
2003-09-03 06:38:23 51°17.69 2°52 19.251265 4.467818 32.905965 2.08405
2003-09-03 06:38:27 51°17.7 2°51.99 19.18514 4.467924 32.902331 2.08405
2003-09-03 06:38:33 51°17.72 2°51.97 19.18514 4.467924 32.902331 2.08405
2003-09-03 06:38:37 51°17.73 2°51.95 19.18469 4.468557 32.901918 2.08405
2003-09-03 06:38:43 51°17.75 2°51.93 19.085016 4.469928 32.908711 2.050341
2003-09-03 06:38:47 51°17.76 2°51.91 19.150785 4.469717 32.903035 2.050341
2003-09-03 06:38:53 51°17.78 2°51.89 19.250243 4.470033 32.900579 2.016631
2003-09-03 06:38:57 51°17.8 2°51.88 19.150334 4.469189 32.890257 2.016631
2003-09-03 06:39:03 51°17.81 2°51.85 19.183953 4.47151 32.905989 2.050341
2003-09-03 06:39:07 51°17.83 2°51.84 19.183953 4.47151 32.905989 2.050341
2003-09-03 06:39:13 51°17.84 2°51.82 19.083581 4.470983 32.900523 1.982922
2003-09-03 06:39:17 51°17.86 2°51.8 19.351029 4.470877 32.897968 2.016631
2003-09-03 06:39:23 51°17.87 2°51.78 19.115798 4.471827 32.905221 2.016631
2003-09-03 06:39:27 51°17.89 2°51.76 19.150621 4.471616 32.902922 1.949212
2003-09-03 06:39:33 51°17.91 2°51.74 19.082064 4.471405 32.902309 2.016631
2003-09-03 06:39:37 51°17.92 2°51.72 19.082064 4.471405 32.902309 2.016631
2003-09-03 06:39:43 51°17.94 2°51.7 19.217188 4.471194 32.899448 2.050341
2003-09-03 06:39:47 51°17.95 2°51.69 19.250365 4.470455 32.894494 2.050341
2003-09-03 06:39:53 51°17.97 2°51.66 19.281074 4.470561 32.894239 2.016631
2003-09-03 06:39:57 51°17.98 2°51.65 19.115429 4.4694 32.88525 2.08405
2003-09-03 06:40:03 51°18 2°51.63 19.143781 4.470139 32.890203 2.08405
2003-09-03 06:40:07 51°18.01 2°51.61 19.143781 4.470139 32.890203 2.08405
2003-09-03 06:40:13 51°18.03 2°51.59 19.245089 4.469189 32.882389 2.08405
2003-09-03 06:40:17 51°18.04 2°51.57 19.14501 4.468873 32.880346 2.151469
2003-09-03 06:40:21 51°18.05 2°51.56 19.111331 4.468767 32.878916 2.117759
2003-09-03 06:40:27 51°18.07 2°51.54 19.245784 4.46824 32.875699 2.151469
2003-09-03 06:40:33 51°18.09 2°51.51 19.111864 4.463598 32.8375 2.117759
2003-09-03 06:40:37 51°18.1 2°51.5 19.111864 4.463598 32.8375 2.117759
2003-09-03 06:40:43 51°18.12 2°51.48 19.374836 4.46518 32.851083 2.117759
2003-09-03 06:40:47 51°18.13 2°51.46 19.306989 4.466341 32.861756 2.185178
2003-09-03 06:40:53 51°18.15 2°51.44 19.374305 4.46613 32.858896 2.185178
2003-09-03 06:40:57 51°18.16 2°51.42 19.205484 4.464231 32.844392 2.218888
2003-09-03 06:41:03 51°18.18 2°51.4 19.205484 4.464231 32.844392 2.218888
2003-09-03 06:41:07 51°18.2 2°51.39 19.138333 4.465391 32.853942 2.218888
2003-09-03 06:41:13 51°18.21 2°51.37 19.20622 4.464969 32.851592 2.218888
2003-09-03 06:41:17 51°18.23 2°51.35 19.137063 4.463387 32.837447 2.218888
2003-09-03 06:41:23 51°18.25 2°51.33 19.169828 4.464864 32.851285 2.185178
2003-09-03 06:41:27 51°18.26 2°51.31 19.233553 4.461805 32.827231 2.286306
2003-09-03 06:41:33 51°18.28 2°51.29 19.233553 4.461805 32.827231 2.286306
2003-09-03 06:41:35 51°18.28 2°51.28 19.264965 4.463282 32.839946 2.252597
2003-09-03 06:41:43 51°18.31 2°51.25 19.095674 4.459062 32.806342 2.218888
2003-09-03 06:41:47 51°18.32 2°51.24 19.16217 4.458534 32.801441 2.185178
2003-09-03 06:41:53 51°18.34 2°51.22 19.16258 4.462227 32.832948 2.185178
2003-09-03 06:41:57 51°18.35 2°51.2 19.092723 4.461488 32.827992 2.151469
2003-09-03 06:42:03 51°18.37 2°51.18 19.092723 4.461488 32.827992 2.151469
2003-09-03 06:42:07 51°18.38 2°51.16 19.125427 4.458323 32.801948 2.117759
2003-09-03 06:42:13 51°18.4 2°51.14 19.126656 4.461383 32.828807 2.117759
2003-09-03 06:42:17 51°18.41 2°51.13 19.088788 4.460644 32.824974 2.117759
2003-09-03 06:42:23 51°18.43 2°51.1 19.297262 4.455792 32.783355 2.117759
2003-09-03 06:42:27 51°18.44 2°51.09 19.158444 4.460539 32.824106 2.08405
2003-09-03 06:42:33 51°18.46 2°51.07 19.291212 4.456425 32.790806 2.050341
2003-09-03 06:42:37 51°18.47 2°51.05 19.291212 4.456425 32.790806 2.050341
2003-09-03 06:42:43 51°18.49 2°51.03 19.05783 4.459273 32.815369 2.050341
2003-09-03 06:42:47 51°18.51 2°51.01 19.224962 4.459378 32.818482 1.982922
2003-09-03 06:42:53 51°18.52 2°50.99 19.159754 4.459062 32.816999 2.016631
2003-09-03 06:42:57 51°18.54 2°50.98 19.056189 4.459167 32.816184 2.016631
2003-09-03 06:43:03 51°18.55 2°50.96 19.124608 4.454842 32.782267 2.050341
2003-09-03 06:43:07 51°18.57 2°50.94 19.124608 4.454842 32.782267 2.050341
2003-09-03 06:43:13 51°18.59 2°50.92 19.257113 4.459167 32.817306 1.949212
2003-09-03 06:43:17 51°18.6 2°50.9 19.191117 4.458535 32.812096 1.949212
2003-09-03 06:43:23 51°18.62 2°50.88 19.12514 4.455581 32.788344 1.949212
2003-09-03 06:43:27 51°18.63 2°50.87 19.121617 4.458957 32.816691 1.881794
2003-09-03 06:43:33 51°18.65 2°50.84 19.2556 4.458851 32.814701 1.881794
2003-09-03 06:43:37 51°18.66 2°50.83 19.2556 4.458851 32.814701 1.881794
2003-09-03 06:43:43 51°18.68 2°50.81 19.154922 4.459273 32.818736 1.915503
2003-09-03 06:43:47 51°18.69 2°50.79 19.353235 4.457269 32.801676 1.848084
2003-09-03 06:43:53 51°18.71 2°50.77 19.214978 4.458429 32.811228 1.814375
2003-09-03 06:43:57 51°18.72 2°50.75 19.148819 4.459378 32.820165 1.814375
2003-09-03 06:44:03 51°18.74 2°50.73 19.148819 4.459378 32.820165 1.814375
2003-09-03 06:44:07 51°18.75 2°50.72 19.347476 4.459484 32.821033 1.814375
2003-09-03 06:44:13 51°18.77 2°50.69 19.078579 4.458324 32.812042 1.780665
2003-09-03 06:44:15 51°18.78 2°50.69 19.169664 4.457058 32.802744 1.780665
2003-09-03 06:44:23 51°18.8 2°50.66 19.198076 4.45537 32.78829 1.746956
2003-09-03 06:44:27 51°18.81 2°50.64 19.16217 4.458535 32.815462 1.746956
2003-09-03 06:44:31 51°18.82 2°50.63 19.021729 4.459906 32.826191 1.713247
2003-09-03 06:44:37 51°18.84 2°50.6 19.021729 4.459906 32.826191 1.713247
2003-09-03 06:44:43 51°18.86 2°50.58 19.118953 4.458746 32.820566 1.713247
2003-09-03 06:44:47 51°18.87 2°50.57 19.050447 4.458851 32.822557 1.713247
2003-09-03 06:44:53 51°18.89 2°50.54 19.081449 4.458324 32.819898 1.746956
2003-09-03 06:44:57 51°18.9 2°50.53 19.044212 4.45864 32.82475 1.679537
2003-09-03 06:45:03 51°18.92 2°50.51 19.044212 4.45864 32.82475 1.679537
2003-09-03 06:45:07 51°18.93 2°50.49 19.11002 4.457585 32.81887 1.713247
2003-09-03 06:45:13 51°18.95 2°50.47 19.164218 4.457058 32.820141 1.679537
2003-09-03 06:45:17 51°18.96 2°50.45 19.034408 4.456847 32.819526 1.645828
2003-09-03 06:45:23 51°18.98 2°50.43 19.153365 4.456214 32.817682 1.645828
2003-09-03 06:45:27 51°19 2°50.42 19.252656 4.455687 32.816145 1.645828
2003-09-03 06:45:33 51°19.01 2°50.39 19.252656 4.455687 32.816145 1.645828
2003-09-03 06:45:37 51°19.03 2°50.38 19.11547 4.454948 32.812308 1.645828
2003-09-03 06:45:43 51°19.04 2°50.35 19.177771 4.453999 32.806172 1.679537
2003-09-03 06:45:47 51°19.06 2°50.34 19.104159 4.453999 32.810664 1.645828
2003-09-03 06:45:53 51°19.07 2°50.32 19.097027 4.45305 32.806773 1.679537
2003-09-03 06:45:57 51°19.09 2°50.3 19.020827 4.4521 32.80232 1.645828
2003-09-03 06:46:03 51°19.1 2°50.28 19.020211 4.450623 32.792958 1.645828
2003-09-03 06:46:07 51°19.12 2°50.26 19.020211 4.450623 32.792958 1.645828
2003-09-03 06:46:13 51°19.13 2°50.24 19.08313 4.449674 32.788503 1.645828
2003-09-03 06:46:17 51°19.15 2°50.23 19.015861 4.44883 32.784918 1.645828
2003-09-03 06:46:23 51°19.16 2°50.2 19.109897 4.448303 32.782255 1.645828
2003-09-03 06:46:27 51°19.18 2°50.19 19.10961 4.444716 32.758868 1.645828
2003-09-03 06:46:33 51°19.19 2°50.16 19.040561 4.444927 32.763975 1.645828
2003-09-03 06:46:37 51°19.21 2°50.15 19.040561 4.444927 32.763975 1.645828
2003-09-03 06:46:43 51°19.22 2°50.13 19.043802 4.442606 32.750457 1.679537
2003-09-03 06:46:47 51°19.24 2°50.11 19.11129 4.441235 32.743079 1.645828
2003-09-03 06:46:53 51°19.25 2°50.09 19.102683 4.440497 32.740359 1.679537
2003-09-03 06:46:57 51°19.27 2°50.07 19.004083 4.439653 32.735645 1.645828
2003-09-03 06:47:03 51°19.29 2°50.05 18.962246 4.436805 32.714965 1.645828
2003-09-03 06:47:07 51°19.3 2°50.04 18.962246 4.436805 32.714965 1.645828
2003-09-03 06:47:13 51°19.32 2°50.01 19.066073 4.436488 32.71516 1.645828
2003-09-03 06:47:17 51°19.33 2°50 18.995134 4.434484 32.699755 1.645828
2003-09-03 06:47:23 51°19.35 2°49.98 19.029238 4.433429 32.691056 1.679537
2003-09-03 06:47:27 51°19.36 2°49.96 18.961178 4.43248 32.684349 1.645828
2003-09-03 06:47:33 51°19.38 2°49.94 19.265865 4.432374 32.685161 1.679537
2003-09-03 06:47:37 51°19.39 2°49.92 19.265865 4.432374 32.685161 1.679537
2003-09-03 06:47:43 51°19.41 2°49.9 19.06107 4.430686 32.672925 1.612118
2003-09-03 06:47:47 51°19.42 2°49.88 19.029443 4.429948 32.668517 1.679537
2003-09-03 06:47:53 51°19.44 2°49.86 19.128992 4.429526 32.666718 1.679537
2003-09-03 06:47:57 51°19.45 2°49.85 19.09715 4.428471 32.65858 1.679537
2003-09-03 06:48:03 51°19.47 2°49.82 18.961055 4.427627 32.653301 1.679537
2003-09-03 06:48:07 51°19.48 2°49.81 18.961055 4.427627 32.653301 1.679537
2003-09-03 06:48:11 51°19.49 2°49.79 19.099363 4.427205 32.649262 1.645828
2003-09-03 06:48:17 51°19.51 2°49.77 19.128008 4.426889 32.648332 1.713247
2003-09-03 06:48:23 51°19.53 2°49.75 19.061685 4.425728 32.639884 1.679537
2003-09-03 06:48:27 51°19.54 2°49.73 19.097232 4.42499 32.633235 1.679537
2003-09-03 06:48:33 51°19.56 2°49.71 19.063284 4.425517 32.637024 1.746956
2003-09-03 06:48:37 51°19.57 2°49.7 19.063284 4.425517 32.637024 1.746956
2003-09-03 06:48:43 51°19.59 2°49.68 18.967462 4.424463 32.628885 1.746956
2003-09-03 06:48:47 51°19.6 2°49.66 19.100716 4.424463 32.628885 1.780665
2003-09-03 06:48:53 51°19.62 2°49.64 19.069026 4.424146 32.625716 1.780665
2003-09-03 06:48:57 51°19.63 2°49.63 19.072839 4.42383 32.623666 1.746956
2003-09-03 06:49:03 51°19.65 2°49.6 19.072839 4.42383 32.623666 1.746956
2003-09-03 06:49:07 51°19.67 2°49.59 19.106905 4.423619 32.621927 1.848084
2003-09-03 06:49:13 51°19.68 2°49.57 19.04372 4.42172 32.60739 1.780665
2003-09-03 06:49:17 51°19.7 2°49.55 19.013727 4.421509 32.603972 1.746956
2003-09-03 06:49:23 51°19.71 2°49.53 19.018324 4.422142 32.608072 1.780665
2003-09-03 06:49:27 51°19.73 2°49.51 19.123174 4.422669 32.611302 1.746956
2003-09-03 06:49:33 51°19.75 2°49.49 19.123174 4.422669 32.611302 1.746956
2003-09-03 06:49:37 51°19.76 2°49.48 19.059429 4.422247 32.606145 1.713247
2003-09-03 06:49:43 51°19.78 2°49.46 18.966106 4.422036 32.603846 1.780665
2003-09-03 06:49:47 51°19.79 2°49.44 19.105839 4.423091 32.610865 1.713247
2003-09-03 06:49:53 51°19.81 2°49.42 19.180842 4.422458 32.604529 1.780665
2003-09-03 06:49:57 51°19.82 2°49.4 19.054877 4.423197 32.60726 1.746956
2003-09-03 06:50:03 51°19.84 2°49.38 19.129401 4.424673 32.617196 1.746956
2003-09-03 06:50:07 51°19.85 2°49.37 19.129401 4.424673 32.617196 1.746956
2003-09-03 06:50:13 51°19.87 2°49.35 19.140176 4.424568 32.613531 1.780665
2003-09-03 06:50:17 51°19.88 2°49.33 19.216574 4.425623 32.618869 1.746956
2003-09-03 06:50:23 51°19.9 2°49.31 19.194515 4.426888 32.624827 1.713247
2003-09-03 06:50:27 51°19.91 2°49.29 19.073536 4.426994 32.620665 1.713247
2003-09-03 06:50:33 51°19.93 2°49.27 19.254987 4.427521 32.620538 1.679537
2003-09-03 06:50:37 51°19.94 2°49.26 19.254987 4.427521 32.620538 1.679537
2003-09-03 06:50:43 51°19.96 2°49.24 19.134236 4.428681 32.624508 1.645828
2003-09-03 06:50:47 51°19.97 2°49.22 19.251429 4.429947 32.629904 1.645828
2003-09-03 06:50:51 51°19.99 2°49.21 19.19959 4.431108 32.633313 1.645828
2003-09-03 06:50:57 51°20 2°49.18 19.149515 4.433745 32.648323 1.612118
2003-09-03 06:51:03 51°20.02 2°49.16 19.149515 4.433745 32.648323 1.612118
2003-09-03 06:51:07 51°20.04 2°49.15 19.26889 4.433639 32.638514 1.578409
2003-09-03 06:51:13 51°20.05 2°49.13 19.259363 4.436382 32.653269 1.612118
2003-09-03 06:51:17 51°20.07 2°49.11 19.276373 4.43712 32.649292 1.578409
2003-09-03 06:51:23 51°20.08 2°49.09 19.243453 4.439019 32.65598 1.578409
2003-09-03 06:51:27 51°20.1 2°49.07 19.300818 4.442183 32.670286 1.578409
2003-09-03 06:51:33 51°20.12 2°49.05 19.298978 4.442921 32.66352 1.5447
2003-09-03 06:51:37 51°20.13 2°49.04 19.298978 4.442921 32.66352 1.5447
2003-09-03 06:51:43 51°20.15 2°49.02 19.285244 4.445136 32.671688 1.578409
2003-09-03 06:51:47 51°20.16 2°49 19.409979 4.447246 32.673409 1.5447
2003-09-03 06:51:53 51°20.18 2°48.98 19.357073 4.447773 32.665478 1.5447
2003-09-03 06:51:57 51°20.19 2°48.96 19.480824 4.451993 32.683412 1.5447
2003-09-03 06:52:03 51°20.21 2°48.94 19.480824 4.451993 32.683412 1.5447
2003-09-03 06:52:07 51°20.22 2°48.93 19.398307 4.456212 32.706349 1.5447
2003-09-03 06:52:13 51°20.24 2°48.9 19.486858 4.458849 32.701252 1.51099
2003-09-03 06:52:17 51°20.25 2°48.89 19.43144 4.463279 32.724783 1.51099
2003-09-03 06:52:23 51°20.27 2°48.87 19.511596 4.466866 32.736929 1.443571
2003-09-03 06:52:27 51°20.28 2°48.85 19.517708 4.469714 32.738566 1.409862
2003-09-03 06:52:33 51°20.3 2°48.83 19.517708 4.469714 32.738566 1.409862
2003-09-03 06:52:37 51°20.31 2°48.82 19.566095 4.472878 32.747802 1.443571
2003-09-03 06:52:43 51°20.33 2°48.79 19.437477 4.47425 32.744575 1.477281
2003-09-03 06:52:47 51°20.34 2°48.78 19.510618 4.478786 32.76225 1.5447
2003-09-03 06:52:53 51°20.36 2°48.76 19.647845 4.482267 32.781285 1.443571
2003-09-03 06:52:57 51°20.37 2°48.74 19.622464 4.484798 32.784767 1.477281
2003-09-03 06:53:03 51°20.39 2°48.72 19.622464 4.484798 32.784767 1.477281
2003-09-03 06:53:07 51°20.4 2°48.7 19.527934 4.48617 32.785427 1.443571
2003-09-03 06:53:13 51°20.42 2°48.68 19.498555 4.487963 32.792312 1.443571
2003-09-03 06:53:17 51°20.44 2°48.67 19.636539 4.491339 32.811018 1.409862
2003-09-03 06:53:23 51°20.45 2°48.64 19.568782 4.490917 32.799796 1.477281
2003-09-03 06:53:27 51°20.47 2°48.63 19.575255 4.491549 32.798307 1.443571
2003-09-03 06:53:33 51°20.48 2°48.61 19.576721 4.493554 32.80802 1.443571
2003-09-03 06:53:37 51°20.5 2°48.59 19.576721 4.493554 32.80802 1.443571
2003-09-03 06:53:43 51°20.51 2°48.57 19.545734 4.494081 32.807889 1.477281
2003-09-03 06:53:47 51°20.53 2°48.55 19.514081 4.496191 32.81957 1.443571
2003-09-03 06:53:53 51°20.54 2°48.53 19.546915 4.49598 32.812853 1.51099
2003-09-03 06:53:57 51°20.56 2°48.52 19.617622 4.498406 32.831555 1.409862
2003-09-03 06:54:03 51°20.57 2°48.49 19.551395 4.498617 32.829948 1.477281
2003-09-03 06:54:07 51°20.59 2°48.48 19.551395 4.498617 32.829948 1.477281
2003-09-03 06:54:13 51°20.6 2°48.45 19.586246 4.499672 32.833566 1.376153
2003-09-03 06:54:17 51°20.62 2°48.44 19.554408 4.501255 32.844265 1.51099
2003-09-03 06:54:23 51°20.64 2°48.42 19.556078 4.499567 32.827157 1.409862
2003-09-03 06:54:27 51°20.65 2°48.4 19.522719 4.502099 32.846159 1.376153
2003-09-03 06:54:33 51°20.67 2°48.38 19.619656 4.502731 32.85077 1.409862
2003-09-03 06:54:37 51°20.68 2°48.36 19.619656 4.502731 32.85077 1.409862
2003-09-03 06:54:43 51°20.7 2°48.34 19.556974 4.502731 32.84855 1.409862
2003-09-03 06:54:47 51°20.71 2°48.33 19.557137 4.501149 32.83508 1.409862
2003-09-03 06:54:53 51°20.72 2°48.3 19.625108 4.503892 32.855802 1.376153
2003-09-03 06:54:57 51°20.74 2°48.29 19.660614 4.503997 32.854443 1.376153
2003-09-03 06:55:03 51°20.75 2°48.26 19.631007 4.504736 32.86047 1.376153
2003-09-03 06:55:07 51°20.77 2°48.25 19.631007 4.504736 32.86047 1.376153
2003-09-03 06:55:11 51°20.78 2°48.23 19.567438 4.504525 32.858193 1.443571
2003-09-03 06:55:17 51°20.8 2°48.21 19.538606 4.504419 32.856222 1.376153
2003-09-03 06:55:23 51°20.81 2°48.18 19.510821 4.505052 32.860832 1.376153
2003-09-03 06:55:27 51°20.82 2°48.17 19.582094 4.502942 32.84195 1.409862
2003-09-03 06:55:33 51°20.84 2°48.14 19.582094 4.502942 32.84195 1.409862
2003-09-03 06:55:37 51°20.85 2°48.13 19.585229 4.504947 32.858861 1.376153
2003-09-03 06:55:43 51°20.87 2°48.1 19.687283 4.505685 32.863778 1.409862
2003-09-03 06:55:47 51°20.88 2°48.09 19.724423 4.506213 32.864752 1.376153
2003-09-03 06:55:53 51°20.9 2°48.07 19.696875 4.507057 32.869418 1.376153
2003-09-03 06:55:57 51°20.91 2°48.05 19.766619 4.507584 32.870392 1.443571
2003-09-03 06:56:03 51°20.93 2°48.03 19.766619 4.507584 32.870392 1.443571
2003-09-03 06:56:07 51°20.94 2°48.01 19.669396 4.508428 32.875058 1.443571
2003-09-03 06:56:13 51°20.96 2°47.99 19.538362 4.509483 32.880335 1.409862
2003-09-03 06:56:17 51°20.97 2°47.97 19.508703 4.508744 32.87209 1.376153
2003-09-03 06:56:23 51°20.99 2°47.95 19.578064 4.510854 32.885972 1.443571
2003-09-03 06:56:27 51°21 2°47.93 19.613472 4.51212 32.892968 1.409862
2003-09-03 06:56:33 51°21.02 2°47.91 19.613472 4.51212 32.892968 1.409862
2003-09-03 06:56:37 51°21.03 2°47.89 19.582013 4.51212 32.890748 1.443571
2003-09-03 06:56:43 51°21.05 2°47.87 19.584984 4.512753 32.89147 1.443571
2003-09-03 06:56:47 51°21.06 2°47.85 19.820474 4.513808 32.899519 1.409862
2003-09-03 06:56:53 51°21.08 2°47.83 19.623155 4.514758 32.904487 1.477281
2003-09-03 06:56:57 51°21.09 2°47.81 19.591497 4.514758 32.900047 1.443571
2003-09-03 06:57:03 51°21.1 2°47.79 19.692485 4.515602 32.905819 1.443571
2003-09-03 06:57:07 51°21.12 2°47.77 19.692485 4.515602 32.905819 1.443571
2003-09-03 06:57:13 51°21.13 2°47.75 19.727592 4.513597 32.887811 1.477281
2003-09-03 06:57:17 51°21.15 2°47.73 19.597154 4.515285 32.89769 1.477281
2003-09-03 06:57:23 51°21.16 2°47.71 19.730192 4.517922 32.916972 1.477281
2003-09-03 06:57:27 51°21.17 2°47.69 19.73141 4.515812 32.898107 1.477281
2003-09-03 06:57:33 51°21.19 2°47.67 19.766538 4.518239 32.917332 1.477281
2003-09-03 06:57:37 51°21.2 2°47.65 19.766538 4.518239 32.917332 1.477281
2003-09-03 06:57:43 51°21.22 2°47.63 19.669437 4.518555 32.917137 1.51099
2003-09-03 06:57:47 51°21.23 2°47.61 19.604561 4.516551 32.900243 1.477281
2003-09-03 06:57:53 51°21.25 2°47.59 19.640728 4.518766 32.917192 1.443571
2003-09-03 06:57:57 51°21.26 2°47.57 19.808303 4.520349 32.927871 1.51099
2003-09-03 06:58:03 51°21.28 2°47.54 19.77551 4.52056 32.929591 1.376153
2003-09-03 06:58:07 51°21.29 2°47.53 19.77551 4.52056 32.929591 1.376153
2003-09-03 06:58:13 51°21.3 2°47.5 19.611804 4.520349 32.926206 1.443571
2003-09-03 06:58:17 51°21.31 2°47.49 19.581199 4.520771 32.928535 1.477281
2003-09-03 06:58:23 51°21.33 2°47.46 19.781233 4.521931 32.935219 1.477281
2003-09-03 06:58:27 51°21.34 2°47.45 19.650245 4.521931 32.933553 1.477281
2003-09-03 06:58:33 51°21.36 2°47.42 19.650936 4.522142 32.933608 1.51099
2003-09-03 06:58:37 51°21.37 2°47.41 19.650936 4.522142 32.933608 1.51099
2003-09-03 06:58:43 51°21.39 2°47.38 19.786469 4.522564 32.936492 1.477281
2003-09-03 06:58:47 51°21.4 2°47.37 19.621162 4.523092 32.939126 1.477281
2003-09-03 06:58:53 51°21.42 2°47.34 19.690738 4.52267 32.934577 1.443571
2003-09-03 06:58:57 51°21.43 2°47.33 19.725032 4.521615 32.923762 1.477281
2003-09-03 06:59:03 51°21.44 2°47.3 19.725032 4.521615 32.923762 1.477281
2003-09-03 06:59:07 51°21.46 2°47.29 19.72747 4.52478 32.947885 1.443571
2003-09-03 06:59:13 51°21.47 2°47.26 19.710935 4.522037 32.925536 1.477281
2003-09-03 06:59:17 51°21.48 2°47.24 19.794749 4.525201 32.947438 1.443571
2003-09-03 06:59:23 51°21.5 2°47.22 19.729867 4.525518 32.950572 1.477281
2003-09-03 06:59:27 51°21.51 2°47.2 19.734944 4.526046 32.954315 1.443571
2003-09-03 06:59:33 51°21.53 2°47.18 19.772709 4.526467 32.954978 1.477281
2003-09-03 06:59:37 51°21.54 2°47.16 19.772709 4.526467 32.954978 1.477281
2003-09-03 06:59:43 51°21.56 2°47.14 19.676348 4.526045 32.950985 1.443571
2003-09-03 06:59:47 51°21.57 2°47.12 19.684112 4.526784 32.956446 1.443571
2003-09-03 06:59:53 51°21.59 2°47.1 19.724586 4.526995 32.954835 1.477281
2003-09-03 06:59:59 51°21.61 2°47.08 19.697891 4.527628 32.959992 1.477281
2003-09-03 07:00:03 51°21.62 2°47.06 19.697891 4.527628 32.959992 1.477281
2003-09-03 07:00:07 51°21.63 2°47.05 19.801567 4.527311 32.957413 1.409862
2003-09-03 07:00:11 51°21.64 2°47.03 19.706831 4.528894 32.967529 1.477281
2003-09-03 07:00:17 51°21.66 2°47.01 19.776037 4.529316 32.969302 1.51099
2003-09-03 07:00:23 51°21.68 2°46.99 19.747859 4.530582 32.975728 1.51099
2003-09-03 07:00:27 51°21.69 2°46.98 19.850813 4.531742 32.981294 1.477281
2003-09-03 07:00:31 51°21.7 2°46.96 19.789595 4.533114 32.986912 1.5447
2003-09-03 07:00:37 51°21.72 2°46.94 19.789595 4.533114 32.986912 1.5447
2003-09-03 07:00:43 51°21.74 2°46.91 19.728201 4.534274 32.992476 1.51099
2003-09-03 07:00:47 51°21.75 2°46.9 19.633895 4.535435 32.996929 1.51099
2003-09-03 07:00:51 51°21.77 2°46.89 19.773236 4.536068 32.998197 1.51099
2003-09-03 07:00:57 51°21.79 2°46.86 19.881139 4.538283 33.014013 1.578409
2003-09-03 07:01:03 51°21.8 2°46.84 19.790488 4.539127 33.016997 1.5447
2003-09-03 07:01:07 51°21.82 2°46.83 19.790488 4.539127 33.016997 1.5447
2003-09-03 07:01:11 51°21.83 2°46.81 19.73336 4.539127 33.013666 1.5447
2003-09-03 07:01:17 51°21.85 2°46.79 19.775875 4.540604 33.022912 1.5447
2003-09-03 07:01:23 51°21.87 2°46.77 19.816214 4.542081 33.031602 1.578409
2003-09-03 07:01:27 51°21.88 2°46.75 19.89038 4.541448 33.020899 1.612118
2003-09-03 07:01:33 51°21.9 2°46.73 19.828993 4.541553 33.018427 1.578409
2003-09-03 07:01:37 51°21.91 2°46.72 19.828993 4.541553 33.018427 1.578409
2003-09-03 07:01:43 51°21.93 2°46.7 19.900025 4.545984 33.048375 1.578409
2003-09-03 07:01:47 51°21.94 2°46.68 19.937984 4.548727 33.064583 1.612118
2003-09-03 07:01:51 51°21.95 2°46.67 19.841121 4.551787 33.083363 1.612118
2003-09-03 07:01:57 51°21.97 2°46.64 19.74457 4.554741 33.100169 1.578409
2003-09-03 07:02:03 51°21.99 2°46.62 19.914409 4.557062 33.114045 1.645828
2003-09-03 07:02:07 51°22 2°46.61 19.914409 4.557062 33.114045 1.645828
2003-09-03 07:02:11 51°22.02 2°46.59 19.884706 4.559594 33.127967 1.612118
2003-09-03 07:02:17 51°22.03 2°46.57 19.921377 4.559488 33.12155 1.612118
2003-09-03 07:02:23 51°22.05 2°46.55 19.857017 4.560543 33.126793 1.612118
2003-09-03 07:02:27 51°22.06 2°46.53 19.79207 4.564236 33.151813 1.612118
2003-09-03 07:02:33 51°22.08 2°46.51 19.827614 4.56508 33.155895 1.612118
2003-09-03 07:02:37 51°22.09 2°46.49 19.827614 4.56508 33.155895 1.612118
2003-09-03 07:02:43 51°22.11 2°46.47 19.795155 4.565291 33.155385 1.612118
2003-09-03 07:02:47 51°22.13 2°46.46 20.029457 4.568245 33.176064 1.679537
2003-09-03 07:02:53 51°22.14 2°46.44 19.731491 4.573731 33.216214 1.612118
2003-09-03 07:02:57 51°22.16 2°46.42 19.798888 4.575736 33.231956 1.645828
2003-09-03 07:03:03 51°22.17 2°46.4 19.866667 4.578163 33.24667 1.612118
2003-09-03 07:03:07 51°22.19 2°46.38 19.866667 4.578163 33.24667 1.612118
2003-09-03 07:03:11 51°22.2 2°46.37 19.867559 4.57869 33.250959 1.612118
2003-09-03 07:03:17 51°22.22 2°46.35 19.836172 4.581222 33.269316 1.578409
2003-09-03 07:03:23 51°22.24 2°46.32 19.836943 4.582172 33.275363 1.578409
2003-09-03 07:03:27 51°22.25 2°46.31 19.837998 4.584071 33.289688 1.612118
2003-09-03 07:03:33 51°22.27 2°46.29 19.837998 4.584071 33.289688 1.612118
2003-09-03 07:03:37 51°22.28 2°46.27 19.904806 4.585548 33.298349 1.578409
2003-09-03 07:03:43 51°22.3 2°46.25 19.83747 4.586287 33.304913 1.5447
2003-09-03 07:03:47 51°22.31 2°46.23 19.772627 4.587342 33.312374 1.578409
2003-09-03 07:03:53 51°22.33 2°46.21 19.838606 4.588291 33.319537 1.5447
2003-09-03 07:03:59 51°22.35 2°46.19 19.805219 4.588291 33.319537 1.578409
2003-09-03 07:04:09 51°22.38 2°46.15 19.904644 4.590085 33.333004 1.578409
2003-09-03 07:04:13 51°22.39 2°46.13 19.904644 4.590085 33.333004 1.578409
2003-09-03 07:04:19 51°22.41 2°46.11 19.770963 4.591562 33.343897 1.51099
2003-09-03 07:04:23 51°22.42 2°46.09 19.902456 4.591773 33.344495 1.51099
2003-09-03 07:04:29 51°22.44 2°46.07 19.937093 4.593461 33.358222 1.5447
2003-09-03 07:04:33 51°22.45 2°46.06 19.737625 4.59325 33.356507 1.51099
2003-09-03 07:04:39 51°22.47 2°46.03 20.004132 4.593567 33.357403 1.578409
2003-09-03 07:04:43 51°22.48 2°46.02 20.004132 4.593567 33.357403 1.578409
2003-09-03 07:04:47 51°22.49 2°46 19.804123 4.5942 33.361992 1.477281
2003-09-03 07:04:53 51°22.51 2°45.98 19.737015 4.594833 33.367699 1.51099
2003-09-03 07:04:59 51°22.53 2°45.96 19.904968 4.594305 33.365646 1.578409
2003-09-03 07:05:03 51°22.54 2°45.94 19.871288 4.595571 33.373145 1.5447
2003-09-03 07:05:09 51°22.56 2°45.92 19.772303 4.595571 33.374264 1.51099
2003-09-03 07:05:13 51°22.57 2°45.9 19.772303 4.595571 33.374264 1.51099
2003-09-03 07:05:19 51°22.59 2°45.88 19.868856 4.596521 33.380308 1.51099
2003-09-03 07:05:23 51°22.6 2°45.86 19.936729 4.595677 33.374562 1.5447
2003-09-03 07:05:29 51°22.62 2°45.84 19.936607 4.59631 33.38027 1.477281
2003-09-03 07:05:33 51°22.63 2°45.83 19.837917 4.595993 33.377136 1.51099
2003-09-03 07:05:39 51°22.65 2°45.8 19.772627 4.596838 33.38512 1.5447
2003-09-03 07:05:43 51°22.66 2°45.79 19.772627 4.596838 33.38512 1.5447
2003-09-03 07:05:49 51°22.68 2°45.76 19.872667 4.596204 33.379971 1.5447
2003-09-03 07:05:53 51°22.69 2°45.75 19.872342 4.596204 33.378852 1.51099
2003-09-03 07:05:59 51°22.71 2°45.73 19.837227 4.595888 33.376838 1.51099
2003-09-03 07:06:03 51°22.72 2°45.71 19.76938 4.594938 33.368557 1.578409
2003-09-03 07:06:09 51°22.74 2°45.69 19.76938 4.594938 33.368557 1.578409
2003-09-03 07:06:13 51°22.76 2°45.67 19.835442 4.594727 33.366841 1.51099
2003-09-03 07:06:19 51°22.77 2°45.65 19.900471 4.594833 33.367139 1.5447
2003-09-03 07:06:23 51°22.79 2°45.63 19.802338 4.594622 33.365423 1.51099
2003-09-03 07:06:29 51°22.8 2°45.61 19.768852 4.594833 33.367139 1.477281
2003-09-03 07:06:35 51°22.82 2°45.59 19.799456 4.594938 33.365761 1.51099
2003-09-03 07:06:39 51°22.83 2°45.57 19.799456 4.594938 33.365761 1.51099
2003-09-03 07:06:43 51°22.85 2°45.56 19.831021 4.595993 33.377136 1.477281
2003-09-03 07:06:49 51°22.86 2°45.53 19.830859 4.596415 33.380009 1.51099
2003-09-03 07:06:53 51°22.88 2°45.52 19.796088 4.5942 33.364228 1.51099
2003-09-03 07:06:59 51°22.9 2°45.49 19.862734 4.594305 33.365086 1.5447
2003-09-03 07:07:03 51°22.91 2°45.48 19.928426 4.596943 33.387097 1.51099
2003-09-03 07:07:09 51°22.93 2°45.46 19.825383 4.597576 33.390567 1.51099
2003-09-03 07:07:13 51°22.94 2°45.44 19.825383 4.597576 33.390567 1.51099
2003-09-03 07:07:19 51°22.96 2°45.42 19.827208 4.598631 33.400267 1.51099
2003-09-03 07:07:23 51°22.97 2°45.4 19.859531 4.599686 33.409409 1.477281
2003-09-03 07:07:29 51°22.99 2°45.38 19.927008 4.599159 33.407918 1.477281
2003-09-03 07:07:35 51°23.01 2°45.36 19.894027 4.600319 33.416798 1.51099
2003-09-03 07:07:39 51°23.02 2°45.34 19.89115 4.600108 33.415082 1.5447
2003-09-03 07:07:43 51°23.03 2°45.33 19.89115 4.600108 33.415082 1.5447
2003-09-03 07:07:49 51°23.05 2°45.31 19.856125 4.600531 33.419635 1.51099
2003-09-03 07:07:53 51°23.06 2°45.29 19.79134 4.600425 33.419337 1.477281
2003-09-03 07:07:59 51°23.08 2°45.27 19.853003 4.597893 33.398179 1.477281
2003-09-03 07:08:03 51°23.09 2°45.25 19.753057 4.601058 33.423927 1.477281
2003-09-03 07:08:09 51°23.11 2°45.23 19.816823 4.601269 33.426204 1.51099
2003-09-03 07:08:15 51°23.13 2°45.21 19.816823 4.601269 33.426204 1.51099
2003-09-03 07:08:19 51°23.14 2°45.19 19.749362 4.601058 33.425048 1.477281
2003-09-03 07:08:23 51°23.15 2°45.18 19.917447 4.601164 33.427587 1.51099
2003-09-03 07:08:29 51°23.17 2°45.15 19.814105 4.60243 33.437888 1.443571
2003-09-03 07:08:33 51°23.18 2°45.14 19.813821 4.602852 33.441322 1.51099
2003-09-03 07:08:39 51°23.2 2°45.12 19.779731 4.602852 33.443004 1.443571
2003-09-03 07:08:43 51°23.21 2°45.1 19.779731 4.602852 33.443004 1.443571
2003-09-03 07:08:47 51°23.22 2°45.09 19.713819 4.602641 33.441848 1.443571
2003-09-03 07:08:51 51°23.24 2°45.07 19.778311 4.603379 33.448979 1.477281
2003-09-03 07:08:59 51°23.26 2°45.04 19.813739 4.603591 33.45294 1.51099
2003-09-03 07:09:03 51°23.27 2°45.03 19.91295 4.604118 33.457794 1.443571
2003-09-03 07:09:07 51°23.29 2°45.01 19.91295 4.604118 33.457794 1.443571
2003-09-03 07:09:11 51°23.3 2°45 19.811021 4.602008 33.441183 1.51099
2003-09-03 07:09:19 51°23.32 2°44.97 19.843838 4.605068 33.466645 1.477281
2003-09-03 07:09:23 51°23.34 2°44.95 19.845298 4.605701 33.471236 1.477281
2003-09-03 07:09:27 51°23.35 2°44.94 19.743311 4.606123 33.475232 1.477281
2003-09-03 07:09:31 51°23.36 2°44.92 19.908818 4.605912 33.47576 1.51099
2003-09-03 07:09:39 51°23.39 2°44.89 20.005791 4.606439 33.479493 1.477281
2003-09-03 07:09:43 51°23.4 2°44.88 20.005791 4.606439 33.479493 1.477281
2003-09-03 07:09:47 51°23.41 2°44.86 19.911087 4.606756 33.482069 1.477281
2003-09-03 07:09:53 51°23.43 2°44.84 19.741646 4.607811 33.490096 1.51099
2003-09-03 07:09:59 51°23.45 2°44.82 19.775672 4.604118 33.461722 1.477281
2003-09-03 07:10:03 51°23.46 2°44.8 19.873031 4.60855 33.498917 1.477281
2003-09-03 07:10:09 51°23.48 2°44.78 19.939928 4.606334 33.479757 1.477281
2003-09-03 07:10:13 51°23.49 2°44.76 19.939928 4.606334 33.479757 1.477281
2003-09-03 07:10:19 51°23.51 2°44.74 19.779731 4.610027 33.509256 1.51099
2003-09-03 07:10:23 51°23.52 2°44.73 19.839579 4.607073 33.487454 1.51099
2003-09-03 07:10:29 51°23.54 2°44.7 19.840269 4.608972 33.501791 1.51099
2003-09-03 07:10:31 51°23.55 2°44.7 19.839661 4.610449 33.516065 1.51099
2003-09-03 07:10:39 51°23.57 2°44.67 19.839661 4.610449 33.516065 1.51099
2003-09-03 07:10:43 51°23.58 2°44.65 19.938025 4.612454 33.531262 1.5447
2003-09-03 07:10:49 51°23.6 2°44.63 19.839904 4.612032 33.528951 1.51099
2003-09-03 07:10:53 51°23.61 2°44.61 19.906103 4.601902 33.445372 1.51099
2003-09-03 07:10:59 51°23.63 2°44.59 19.905414 4.612981 33.535558 1.51099
2003-09-03 07:11:03 51°23.64 2°44.58 19.84108 4.611715 33.525811 1.5447
2003-09-03 07:11:09 51°23.66 2°44.55 19.772384 4.613931 33.543853 1.477281
2003-09-03 07:11:13 51°23.68 2°44.54 19.772384 4.613931 33.543853 1.477281
2003-09-03 07:11:19 51°23.69 2°44.52 19.741402 4.613931 33.545541 1.5447
2003-09-03 07:11:23 51°23.71 2°44.5 19.775591 4.616041 33.562162 1.5447
2003-09-03 07:11:29 51°23.72 2°44.48 19.773074 4.616885 33.569036 1.578409
2003-09-03 07:11:33 51°23.74 2°44.46 19.875018 4.617624 33.576178 1.5447
2003-09-03 07:11:39 51°23.76 2°44.44 19.873883 4.617835 33.576206 1.578409
2003-09-03 07:11:43 51°23.77 2°44.42 19.873883 4.617835 33.576206 1.578409
2003-09-03 07:11:49 51°23.79 2°44.4 19.974831 4.618679 33.584208 1.578409
2003-09-03 07:11:51 51°23.79 2°44.39 19.940374 4.619945 33.592829 1.5447
2003-09-03 07:11:59 51°23.82 2°44.36 19.844203 4.619418 33.590223 1.612118
2003-09-03 07:12:03 51°23.83 2°44.35 19.810047 4.621106 33.602282 1.578409
2003-09-03 07:12:09 51°23.85 2°44.33 19.778067 4.622372 33.612595 1.5447
2003-09-03 07:12:13 51°23.86 2°44.31 19.778067 4.622372 33.612595 1.5447
2003-09-03 07:12:19 51°23.88 2°44.29 19.743961 4.623216 33.618907 1.612118
2003-09-03 07:12:23 51°23.89 2°44.28 19.780503 4.623744 33.624896 1.578409
2003-09-03 07:12:29 51°23.91 2°44.25 19.812563 4.625326 33.63666 1.5447
2003-09-03 07:12:31 51°23.92 2°44.24 19.74725 4.625643 33.638675 1.5447
2003-09-03 07:12:39 51°23.94 2°44.22 19.813658 4.626487 33.645551 1.578409
2003-09-03 07:12:43 51°23.95 2°44.2 19.813658 4.626487 33.645551 1.578409
2003-09-03 07:12:49 51°23.97 2°44.18 19.813212 4.627437 33.652722 1.578409
2003-09-03 07:12:55 51°23.99 2°44.16 19.779447 4.627859 33.655596 1.578409
2003-09-03 07:12:59 51°24 2°44.14 20.012305 4.629019 33.666181 1.612118
2003-09-03 07:13:03 51°24.02 2°44.13 19.746397 4.62923 33.666206 1.612118
2003-09-03 07:13:07 51°24.03 2°44.11 19.813293 4.629863 33.669669 1.578409
2003-09-03 07:13:11 51°24.04 2°44.1 19.813293 4.629863 33.669669 1.578409
2003-09-03 07:13:19 51°24.07 2°44.07 19.912667 4.63113 33.679984 1.612118
2003-09-03 07:13:23 51°24.08 2°44.05 19.913599 4.630813 33.677405 1.578409
2003-09-03 07:13:29 51°24.1 2°44.03 19.877896 4.631974 33.685731 1.612118
2003-09-03 07:13:33 51°24.11 2°44.02 19.71321 4.631446 33.681998 1.612118
2003-09-03 07:13:39 51°24.13 2°43.99 19.71321 4.631446 33.681998 1.612118
2003-09-03 07:13:43 51°24.14 2°43.98 19.778067 4.632923 33.694033 1.612118
2003-09-03 07:13:47 51°24.15 2°43.96 19.844203 4.635139 33.712086 1.645828
2003-09-03 07:13:51 51°24.16 2°43.95 19.944869 4.6344 33.706068 1.612118
2003-09-03 07:13:59 51°24.19 2°43.92 19.841161 4.63535 33.713805 1.612118
2003-09-03 07:14:03 51°24.2 2°43.91 19.808221 4.635772 33.717244 1.612118
2003-09-03 07:14:09 51°24.22 2°43.88 19.808221 4.635772 33.717244 1.612118
2003-09-03 07:14:13 51°24.23 2°43.87 19.811143 4.636827 33.726408 1.645828
2003-09-03 07:14:19 51°24.25 2°43.85 19.974061 4.636933 33.727833 1.612118
2003-09-03 07:14:23 51°24.26 2°43.83 19.874937 4.637038 33.728693 1.612118
2003-09-03 07:14:29 51°24.28 2°43.81 20.139107 4.637988 33.736997 1.679537
2003-09-03 07:14:35 51°24.3 2°43.79 19.873923 4.638305 33.739577 1.645828
2003-09-03 07:14:39 51°24.31 2°43.77 19.806233 4.639254 33.747882 1.612118
2003-09-03 07:14:43 51°24.33 2°43.76 19.806233 4.639254 33.747882 1.612118
2003-09-03 07:14:47 51°24.34 2°43.74 19.90355 4.63936 33.748176 1.645828
2003-09-03 07:14:51 51°24.35 2°43.73 20.00138 4.640204 33.756754 1.612118
2003-09-03 07:14:59 51°24.37 2°43.7 19.800552 4.640204 33.757887 1.645828
2003-09-03 07:15:03 51°24.39 2°43.68 19.733685 4.640732 33.76162 1.645828
2003-09-03 07:15:09 51°24.41 2°43.66 19.697484 4.640943 33.763907 1.645828
2003-09-03 07:15:13 51°24.42 2°43.64 19.697484 4.640943 33.763907 1.645828
2003-09-03 07:15:19 51°24.44 2°43.62 19.864558 4.641892 33.771081 1.679537
2003-09-03 07:15:23 51°24.45 2°43.61 19.729867 4.641681 33.769927 1.645828
2003-09-03 07:15:29 51°24.47 2°43.58 19.896175 4.642525 33.776241 1.645828
2003-09-03 07:15:33 51°24.48 2°43.57 19.797224 4.642631 33.780502 1.679537
2003-09-03 07:15:39 51°24.5 2°43.55 19.75996 4.642525 33.780775 1.679537
2003-09-03 07:15:43 51°24.51 2°43.53 19.75996 4.642525 33.780775 1.679537
2003-09-03 07:15:49 51°24.53 2°43.51 19.760204 4.642947 33.784216 1.713247
2003-09-03 07:15:51 51°24.54 2°43.5 19.760651 4.644108 33.794245 1.713247
2003-09-03 07:15:59 51°24.56 2°43.47 19.894878 4.643792 33.793933 1.679537
2003-09-03 07:16:03 51°24.57 2°43.46 19.758214 4.643686 33.79364 1.679537
2003-09-03 07:16:09 51°24.59 2°43.43 19.789798 4.642103 33.779602 1.679537
2003-09-03 07:16:13 51°24.6 2°43.42 19.789798 4.642103 33.779602 1.679537
2003-09-03 07:16:19 51°24.62 2°43.4 19.890907 4.643897 33.794793 1.679537
2003-09-03 07:16:23 51°24.63 2°43.38 19.824125 4.643581 33.793346 1.645828
2003-09-03 07:16:29 51°24.65 2°43.36 19.891596 4.643686 33.796475 1.679537
2003-09-03 07:16:31 51°24.66 2°43.35 19.690291 4.644003 33.798489 1.679537
2003-09-03 07:16:39 51°24.68 2°43.32 19.690291 4.644003 33.798489 1.679537
2003-09-03 07:16:43 51°24.7 2°43.31 19.759067 4.642948 33.789319 1.679537
2003-09-03 07:16:49 51°24.72 2°43.28 19.859774 4.644214 33.801345 1.679537
2003-09-03 07:16:55 51°24.73 2°43.26 19.756874 4.64453 33.803359 1.713247
2003-09-03 07:16:59 51°24.75 2°43.25 19.757605 4.644425 33.8042 1.713247
2003-09-03 07:17:03 51°24.76 2°43.23 19.888961 4.645058 33.808796 1.713247
2003-09-03 07:17:07 51°24.77 2°43.22 19.824328 4.644214 33.801912 1.679537
2003-09-03 07:17:11 51°24.78 2°43.2 19.824328 4.644214 33.801912 1.679537
2003-09-03 07:17:19 51°24.81 2°43.17 19.78927 4.644003 33.799624 1.713247
2003-09-03 07:17:23 51°24.82 2°43.16 19.887502 4.64453 33.803359 1.746956
2003-09-03 07:17:29 51°24.84 2°43.14 19.789148 4.644636 33.804219 1.713247
2003-09-03 07:17:33 51°24.85 2°43.12 19.792679 4.644425 33.803633 1.679537
2003-09-03 07:17:39 51°24.87 2°43.1 19.792679 4.644425 33.803633 1.679537
2003-09-03 07:17:43 51°24.88 2°43.08 19.788783 4.644636 33.805921 1.746956
2003-09-03 07:17:47 51°24.9 2°43.07 19.859328 4.644425 33.803066 1.713247
2003-09-03 07:17:53 51°24.91 2°43.05 19.758986 4.643475 33.795889 1.713247
2003-09-03 07:17:59 51°24.93 2°43.02 19.762031 4.643475 33.797024 1.746956
2003-09-03 07:18:03 51°24.95 2°43.01 19.828425 4.644003 33.800759 1.713247
2003-09-03 07:18:07 51°24.96 2°42.99 19.797224 4.644636 33.804219 1.713247
2003-09-03 07:18:11 51°24.97 2°42.98 19.797224 4.644636 33.804219 1.713247
2003-09-03 07:18:19 51°25 2°42.95 19.894878 4.644214 33.801912 1.780665
2003-09-03 07:18:23 51°25.01 2°42.93 19.82948 4.643792 33.79847 1.746956
2003-09-03 07:18:29 51°25.03 2°42.91 19.92875 4.644741 33.805647 1.746956
2003-09-03 07:18:31 51°25.03 2°42.9 19.961026 4.645374 33.810242 1.746956
2003-09-03 07:18:39 51°25.06 2°42.87 19.827371 4.64548 33.811103 1.746956
2003-09-03 07:18:43 51°25.07 2°42.86 19.827371 4.64548 33.811103 1.746956
2003-09-03 07:18:49 51°25.09 2°42.84 19.760894 4.64548 33.810535 1.780665
2003-09-03 07:18:55 51°25.11 2°42.81 19.827614 4.645269 33.807112 1.746956
2003-09-03 07:18:59 51°25.12 2°42.8 19.761706 4.646113 33.813995 1.780665
2003-09-03 07:19:03 51°25.13 2°42.78 19.827979 4.646852 33.818316 1.780665
2003-09-03 07:19:09 51°25.15 2°42.76 19.797833 4.64759 33.824338 1.780665
2003-09-03 07:19:13 51°25.16 2°42.75 19.797833 4.64759 33.824338 1.780665
2003-09-03 07:19:19 51°25.18 2°42.72 19.794059 4.646746 33.819158 1.780665
2003-09-03 07:19:23 51°25.19 2°42.71 19.963576 4.647379 33.822618 1.780665
2003-09-03 07:19:29 51°25.21 2°42.69 19.760894 4.647696 33.826334 1.780665
2003-09-03 07:19:33 51°25.23 2°42.67 19.725723 4.648012 33.829483 1.814375
2003-09-03 07:19:39 51°25.24 2°42.65 19.85726 4.647696 33.826902 1.780665
2003-09-03 07:19:43 51°25.26 2°42.63 19.85726 4.647696 33.826902 1.780665
2003-09-03 07:19:49 51°25.27 2°42.61 19.825099 4.648118 33.82864 1.780665
2003-09-03 07:19:55 51°25.29 2°42.59 19.927008 4.648645 33.83351 1.746956
2003-09-03 07:19:59 51°25.31 2°42.58 20.057037 4.649173 33.837813 1.814375
2003-09-03 07:20:03 51°25.32 2°42.56 20.026423 4.648329 33.830361 1.780665
2003-09-03 07:20:07 51°25.33 2°42.55 19.925347 4.648856 33.834664 1.780665
2003-09-03 07:20:11 51°25.34 2°42.53 19.925347 4.648856 33.834664 1.780665
2003-09-03 07:20:19 51°25.37 2°42.5 19.855598 4.649595 33.841823 1.848084
2003-09-03 07:20:23 51°25.38 2°42.49 19.757159 4.649279 33.840945 1.780665
2003-09-03 07:20:29 51°25.4 2°42.46 19.757321 4.649173 33.837245 1.780665
2003-09-03 07:20:33 51°25.41 2°42.45 19.853692 4.649701 33.843251 1.780665
2003-09-03 07:20:39 51°25.43 2°42.43 19.95313 4.649701 33.844387 1.780665
2003-09-03 07:20:43 51°25.44 2°42.41 19.95313 4.649701 33.844387 1.780665
2003-09-03 07:20:47 51°25.46 2°42.4 19.821367 4.650334 33.850119 1.780665
2003-09-03 07:20:51 51°25.47 2°42.38 19.788539 4.650228 33.849258 1.746956
2003-09-03 07:20:59 51°25.49 2°42.35 19.82092 4.650017 33.847537 1.780665
2003-09-03 07:21:03 51°25.51 2°42.34 19.818811 4.650967 33.855282 1.780665
2003-09-03 07:21:09 51°25.53 2°42.31 19.818811 4.650967 33.855282 1.780665
2003-09-03 07:21:13 51°25.54 2°42.3 19.755575 4.651283 33.860137 1.814375
2003-09-03 07:21:19 51°25.56 2°42.28 19.755209 4.651072 33.858416 1.746956
2003-09-03 07:21:23 51°25.57 2°42.26 19.887583 4.651705 33.86358 1.746956
2003-09-03 07:21:29 51°25.59 2°42.24 19.823273 4.651072 33.858984 1.780665
2003-09-03 07:21:35 51°25.61 2°42.22 19.756387 4.652339 33.87045 1.746956
2003-09-03 07:21:39 51°25.62 2°42.2 19.726007 4.652339 33.869881 1.780665
2003-09-03 07:21:43 51°25.63 2°42.19 19.726007 4.652339 33.869881 1.780665
2003-09-03 07:21:49 51°25.65 2°42.16 19.824815 4.652128 33.868728 1.780665
2003-09-03 07:21:55 51°25.67 2°42.14 19.924577 4.652339 33.869881 1.746956
2003-09-03 07:21:59 51°25.68 2°42.13 19.793531 4.652655 33.871326 1.780665
2003-09-03 07:22:03 51°25.69 2°42.11 19.831183 4.652339 33.868744 1.780665
2003-09-03 07:22:09 51°25.71 2°42.09 19.957989 4.652972 33.873909 1.814375
2003-09-03 07:22:11 51°25.72 2°42.08 19.957989 4.652972 33.873909 1.814375
2003-09-03 07:22:19 51°25.75 2°42.05 19.926765 4.652655 33.871895 1.780665
2003-09-03 07:22:23 51°25.76 2°42.04 19.894716 4.652866 33.871342 1.780665
2003-09-03 07:22:29 51°25.78 2°42.01 19.861801 4.654343 33.88453 1.780665
2003-09-03 07:22:33 51°25.79 2°42 19.829561 4.653077 33.873632 1.780665
2003-09-03 07:22:39 51°25.81 2°41.97 19.894878 4.653288 33.873648 1.780665
2003-09-03 07:22:43 51°25.82 2°41.96 19.894878 4.653288 33.873648 1.780665
2003-09-03 07:22:49 51°25.84 2°41.94 19.761016 4.653288 33.873648 1.814375
2003-09-03 07:22:53 51°25.85 2°41.92 19.832928 4.654343 33.881686 1.780665
2003-09-03 07:22:59 51°25.87 2°41.9 19.862491 4.650967 33.855282 1.780665
2003-09-03 07:23:03 51°25.88 2°41.88 19.797387 4.652866 33.8685 1.780665
2003-09-03 07:23:09 51°25.9 2°41.86 19.793166 4.654132 33.879396 1.780665
2003-09-03 07:23:11 51°25.91 2°41.85 19.793166 4.654132 33.879396 1.780665
2003-09-03 07:23:19 51°25.93 2°41.82 19.79345 4.654449 33.881978 1.780665
2003-09-03 07:23:23 51°25.95 2°41.81 19.794708 4.651916 33.861323 1.746956
2003-09-03 07:23:27 51°25.96 2°41.79 19.792233 4.652233 33.863905 1.746956
2003-09-03 07:23:33 51°25.98 2°41.77 19.928061 4.653077 33.871358 1.746956
2003-09-03 07:23:39 51°26 2°41.75 19.794059 4.652761 33.866503 1.713247
2003-09-03 07:23:43 51°26.01 2°41.73 19.794059 4.652761 33.866503 1.713247
2003-09-03 07:23:49 51°26.03 2°41.71 19.827005 4.654871 33.884852 1.746956
2003-09-03 07:23:53 51°26.04 2°41.7 19.85726 4.652972 33.868792 1.746956
2003-09-03 07:23:59 51°26.06 2°41.67 19.788905 4.652444 33.866194 1.780665
2003-09-03 07:24:03 51°26.07 2°41.66 19.784359 4.654554 33.882839 1.713247
2003-09-03 07:24:09 51°26.09 2°41.63 19.816214 4.655504 33.891723 1.679537
2003-09-03 07:24:13 51°26.1 2°41.62 19.816214 4.655504 33.891723 1.679537
2003-09-03 07:24:19 51°26.12 2°41.6 19.745423 4.655926 33.894597 1.713247
2003-09-03 07:24:23 51°26.13 2°41.58 19.805178 4.655399 33.892 1.746956
2003-09-03 07:24:29 51°26.15 2°41.56 19.734863 4.65466 33.884837 1.679537
2003-09-03 07:24:33 51°26.17 2°41.54 19.76601 4.656559 33.9009 1.679537
2003-09-03 07:24:39 51°26.18 2°41.52 19.797711 4.65561 33.895428 1.645828
2003-09-03 07:24:43 51°26.2 2°41.51 19.797711 4.65561 33.895428 1.645828
2003-09-03 07:24:47 51°26.21 2°41.49 19.825423 4.655715 33.899134 1.679537
2003-09-03 07:24:51 51°26.22 2°41.47 19.956329 4.65371 33.882209 1.645828
2003-09-03 07:24:59 51°26.25 2°41.44 19.751189 4.656876 33.911451 1.645828
2003-09-03 07:25:03 51°26.26 2°41.43 19.779082 4.654977 33.898799 1.612118
2003-09-03 07:25:09 51°26.28 2°41.41 19.779082 4.654977 33.898799 1.612118
2003-09-03 07:25:13 51°26.29 2°41.39 19.737787 4.656137 33.911117 1.578409
2003-09-03 07:25:19 51°26.31 2°41.37 19.832481 4.656032 33.912534 1.578409
2003-09-03 07:25:23 51°26.32 2°41.35 19.730395 4.658564 33.937193 1.5447
2003-09-03 07:25:27 51°26.33 2°41.34 19.862572 4.658565 33.939474 1.5447
2003-09-03 07:25:31 51°26.35 2°41.32 19.760488 4.658459 33.940893 1.477281
2003-09-03 07:25:39 51°26.37 2°41.29 19.721092 4.659092 33.948343 1.477281
2003-09-03 07:25:43 51°26.38 2°41.28 19.721092 4.659092 33.948343 1.477281
2003-09-03 07:25:47 51°26.4 2°41.26 19.751798 4.657932 33.943428 1.409862
2003-09-03 07:25:51 51°26.41 2°41.25 19.715729 4.656982 33.939095 1.409862
2003-09-03 07:25:59 51°26.43 2°41.22 19.748225 4.660992 33.97584 1.409862
2003-09-03 07:26:03 51°26.45 2°41.2 19.777945 4.660992 33.979838 1.443571
2003-09-03 07:26:09 51°26.47 2°41.18 19.711422 4.660675 33.980108 1.376153
2003-09-03 07:26:15 51°26.48 2°41.16 19.711422 4.660675 33.980108 1.376153
2003-09-03 07:26:19 51°26.5 2°41.14 19.744042 4.658565 33.966292 1.342443
2003-09-03 07:26:23 51°26.51 2°41.13 19.74526 4.662469 33.999337 1.342443
2003-09-03 07:26:29 51°26.53 2°41.1 19.64752 4.66268 34.003921 1.376153
2003-09-03 07:26:33 51°26.54 2°41.09 19.642233 4.662575 34.005918 1.342443
2003-09-03 07:26:39 51°26.56 2°41.07 19.707806 4.661098 33.996131 1.342443
2003-09-03 07:26:43 51°26.57 2°41.05 19.707806 4.661098 33.996131 1.342443
2003-09-03 07:26:49 51°26.59 2°41.03 19.741321 4.662786 34.011647 1.342443
2003-09-03 07:26:53 51°26.6 2°41.02 19.673137 4.662892 34.014226 1.275024
2003-09-03 07:26:59 51°26.62 2°40.99 19.645568 4.662786 34.013363 1.376153
2003-09-03 07:27:03 51°26.64 2°40.98 19.677893 4.663103 34.016523 1.342443
2003-09-03 07:27:09 51°26.65 2°40.96 19.712275 4.664052 34.025432 1.376153
2003-09-03 07:27:13 51°26.67 2°40.94 19.712275 4.664052 34.025432 1.376153
2003-09-03 07:27:19 51°26.69 2°40.92 19.746316 4.661942 34.008751 1.342443
2003-09-03 07:27:23 51°26.7 2°40.91 19.842094 4.663841 34.025424 1.308734
2003-09-03 07:27:29 51°26.72 2°40.88 19.715445 4.663841 34.025996 1.376153
2003-09-03 07:27:33 51°26.73 2°40.87 19.745788 4.664263 34.029447 1.342443
2003-09-03 07:27:39 51°26.75 2°40.85 19.712519 4.664791 34.032043 1.409862
2003-09-03 07:27:43 51°26.76 2°40.83 19.712519 4.664791 34.032043 1.409862
2003-09-03 07:27:49 51°26.78 2°40.81 19.710244 4.665002 34.033196 1.376153
2003-09-03 07:27:55 51°26.8 2°40.79 19.742905 4.665635 34.037227 1.342443
2003-09-03 07:27:59 51°26.81 2°40.77 19.708212 4.665846 34.038953 1.342443
2003-09-03 07:28:03 51°26.82 2°40.76 19.777418 4.666479 34.043556 1.342443
2003-09-03 07:28:09 51°26.84 2°40.74 19.777418 4.666479 34.043556 1.342443
2003-09-03 07:28:11 51°26.85 2°40.73 19.678665 4.666796 34.04729 1.409862
2003-09-03 07:28:19 51°26.87 2°40.7 19.744042 4.666374 34.044412 1.376153
2003-09-03 07:28:23 51°26.89 2°40.69 19.745626 4.667429 34.05304 1.376153
2003-09-03 07:28:29 51°26.9 2°40.67 19.681064 4.66764 34.054192 1.409862
2003-09-03 07:28:31 51°26.91 2°40.66 19.71256 4.666479 34.045847 1.409862
2003-09-03 07:28:39 51°26.94 2°40.63 19.782045 4.667851 34.057064 1.376153
2003-09-03 07:28:43 51°26.95 2°40.62 19.782045 4.667851 34.057064 1.376153
2003-09-03 07:28:49 51°26.97 2°40.59 19.713251 4.665741 34.040381 1.409862
2003-09-03 07:28:55 51°26.99 2°40.57 19.813942 4.667007 34.050734 1.443571
2003-09-03 07:28:59 51°27 2°40.56 19.747534 4.666057 34.042969 1.477281
2003-09-03 07:29:03 51°27.01 2°40.55 19.779082 4.666796 34.049009 1.443571
2003-09-03 07:29:09 51°27.02 2°40.52 19.846028 4.667007 34.049016 1.51099
2003-09-03 07:29:13 51°27.03 2°40.51 19.846028 4.667007 34.049016 1.51099
2003-09-03 07:29:19 51°27.03 2°40.49 19.711422 4.667323 34.049886 1.443571
2003-09-03 07:29:23 51°27.04 2°40.48 19.780503 4.666057 34.041251 1.477281
2003-09-03 07:29:29 51°27.04 2°40.46 19.645324 4.667956 34.056781 1.443571
2003-09-03 07:29:35 51°27.05 2°40.44 19.844973 4.668167 34.056788 1.477281
2003-09-03 07:29:39 51°27.05 2°40.42 19.646259 4.667429 34.054185 1.51099
2003-09-03 07:29:43 51°27.05 2°40.41 19.646259 4.667429 34.054185 1.51099
2003-09-03 07:29:49 51°27.05 2°40.4 19.879274 4.666479 34.045847 1.51099
2003-09-03 07:29:55 51°27.05 2°40.38 19.681308 4.665846 34.042389 1.51099
2003-09-03 07:29:59 51°27.05 2°40.37 19.712194 4.665952 34.040961 1.477281
2003-09-03 07:30:03 51°27.05 2°40.36 19.678787 4.666057 34.042969 1.51099
2003-09-03 07:30:09 51°27.05 2°40.35 19.744976 4.666585 34.047283 1.477281
2003-09-03 07:30:13 51°27.05 2°40.34 19.744976 4.666585 34.047283 1.477281
2003-09-03 07:30:19 51°27.05 2°40.33 19.844122 4.665741 34.042672 1.477281
2003-09-03 07:30:23 51°27.04 2°40.32 19.648374 4.666268 34.044122 1.477281
2003-09-03 07:30:29 51°27.04 2°40.31 19.7126 4.666057 34.042396 1.477281
2003-09-03 07:30:31 51°27.04 2°40.3 19.812725 4.665846 34.041243 1.51099
2003-09-03 07:30:39 51°27.04 2°40.29 19.81167 4.666268 34.044695 1.51099
2003-09-03 07:30:43 51°27.04 2°40.28 19.81167 4.666268 34.044695 1.51099
2003-09-03 07:30:49 51°27.04 2°40.27 19.744123 4.665635 34.038945 1.51099
2003-09-03 07:30:53 51°27.04 2°40.26 19.643128 4.665846 34.040671 1.51099
2003-09-03 07:30:59 51°27.03 2°40.25 19.677446 4.665635 34.040091 1.409862
2003-09-03 07:31:03 51°27.03 2°40.24 19.744286 4.666163 34.042114 1.443571
2003-09-03 07:31:09 51°27.03 2°40.23 19.743839 4.667007 34.050161 1.409862
2003-09-03 07:31:13 51°27.03 2°40.22 19.743839 4.667007 34.050161 1.409862
2003-09-03 07:31:19 51°27.03 2°40.21 19.74457 4.666479 34.045847 1.51099
2003-09-03 07:31:23 51°27.02 2°40.21 19.779366 4.666374 34.045557 1.51099
2003-09-03 07:31:29 51°27.02 2°40.2 19.711382 4.666268 34.044122 1.51099
2003-09-03 07:31:33 51°27.02 2°40.19 19.680088 4.665952 34.040961 1.409862
2003-09-03 07:31:39 51°27.02 2°40.18 19.680088 4.665952 34.040961 1.409862
2003-09-03 07:31:43 51°27.01 2°40.17 19.811183 4.665741 34.040953 1.409862
2003-09-03 07:31:49 51°27.01 2°40.16 19.779691 4.665952 34.042106 1.443571
2003-09-03 07:31:51 51°27.01 2°40.16 19.746032 4.665741 34.040381 1.477281
2003-09-03 07:31:59 51°27.01 2°40.14 19.779894 4.666057 34.042396 1.51099
2003-09-03 07:32:03 51°27 2°40.14 19.747778 4.665424 34.03722 1.477281
2003-09-03 07:32:09 51°27 2°40.12 19.747778 4.665424 34.03722 1.477281
2003-09-03 07:32:13 51°27 2°40.12 19.712154 4.664685 34.032326 1.443571
2003-09-03 07:32:19 51°27 2°40.11 19.747859 4.664158 34.028012 1.443571
2003-09-03 07:32:23 51°26.99 2°40.1 19.813821 4.665846 34.039525 1.443571
2003-09-03 07:32:29 51°26.99 2°40.09 19.747331 4.665424 34.036647 1.477281
2003-09-03 07:32:33 51°26.99 2°40.08 19.649513 4.665107 34.035204 1.443571
2003-09-03 07:32:39 51°26.99 2°40.07 19.680373 4.665213 34.034922 1.477281
2003-09-03 07:32:43 51°26.98 2°40.06 19.680373 4.665213 34.034922 1.477281
2003-09-03 07:32:47 51°26.98 2°40.06 19.645853 4.665318 34.034067 1.409862
2003-09-03 07:32:53 51°26.98 2°40.05 19.746763 4.664685 34.032326 1.409862
2003-09-03 07:32:59 51°26.98 2°40.04 19.645649 4.664263 34.02544 1.477281
2003-09-03 07:33:03 51°26.98 2°40.03 19.67956 4.664896 34.031188 1.443571
2003-09-03 07:33:09 51°26.97 2°40.03 19.747088 4.665002 34.030906 1.409862
2003-09-03 07:33:15 51°26.97 2°40.02 19.747088 4.665002 34.030906 1.409862
2003-09-03 07:33:19 51°26.97 2°40.02 19.812401 4.664896 34.030616 1.477281
2003-09-03 07:33:23 51°26.97 2°40.02 19.745098 4.665002 34.030906 1.443571
2003-09-03 07:33:29 51°26.97 2°40.02 19.714429 4.664791 34.031471 1.51099
2003-09-03 07:33:33 51°26.97 2°40.02 19.74656 4.664474 34.029455 1.443571
2003-09-03 07:33:39 51°26.97 2°40.02 19.712722 4.663525 34.022263 1.443571
2003-09-03 07:33:43 51°26.97 2°40.02 19.712722 4.663525 34.022263 1.443571
2003-09-03 07:33:49 51°26.98 2°40.02 19.680088 4.664896 34.031761 1.443571
2003-09-03 07:33:53 51°26.98 2°40.02 19.845663 4.662997 34.016233 1.443571
2003-09-03 07:33:59 51°26.98 2°40.02 19.712154 4.662892 34.015942 1.477281
2003-09-03 07:34:03 51°26.98 2°40.01 19.746194 4.664263 34.027157 1.477281
2003-09-03 07:34:09 51°26.98 2°40.01 19.78103 4.664158 34.026867 1.409862
2003-09-03 07:34:13 51°26.98 2°40.01 19.78103 4.664158 34.026867 1.409862
2003-09-03 07:34:19 51°26.98 2°40.01 19.813942 4.664474 34.02831 1.409862
2003-09-03 07:34:23 51°26.98 2°40.01 19.683056 4.664052 34.024859 1.443571
2003-09-03 07:34:29 51°26.98 2°40.01 19.846109 4.662997 34.017377 1.409862
2003-09-03 07:34:33 51°26.98 2°40.01 19.746479 4.664052 34.026004 1.443571
2003-09-03 07:34:39 51°26.98 2°40.01 19.611478 4.663947 34.024569 1.477281
2003-09-03 07:34:43 51°26.98 2°40.01 19.611478 4.663947 34.024569 1.477281
2003-09-03 07:34:49 51°26.98 2°40 19.745585 4.663736 34.023989 1.409862
2003-09-03 07:34:53 51°26.98 2°40 19.613269 4.663419 34.020256 1.443571
2003-09-03 07:34:59 51°26.98 2°40 19.611641 4.663314 34.019393 1.443571
2003-09-03 07:35:03 51°26.98 2°40 19.608467 4.663525 34.020546 1.409862
2003-09-03 07:35:09 51°26.98 2°40 19.608508 4.662681 34.016506 1.376153
2003-09-03 07:35:13 51°26.98 2°40 19.608508 4.662681 34.016506 1.376153
2003-09-03 07:35:19 51°26.99 2°40 19.609485 4.663103 34.01824 1.376153
2003-09-03 07:35:23 51°26.99 2°40 19.642477 4.662892 34.018804 1.342443
2003-09-03 07:35:29 51°26.99 2°40 19.610339 4.663314 34.019965 1.848084
2003-09-03 07:35:31 51°26.99 2°39.99 19.610339 4.66363 34.017403 1.949212
2003-09-03 07:35:39 51°26.99 2°39.99 19.60806 4.66363 34.017975 1.645828
2003-09-03 07:35:43 51°26.99 2°39.99 19.60806 4.66363 34.017975 1.645828
2003-09-03 07:35:49 51°26.99 2°39.99 19.606555 4.663419 34.016822 1.51099
2003-09-03 07:35:51 51°26.99 2°39.99 19.605415 4.663208 34.015669 1.51099
2003-09-03 07:35:59 51°26.99 2°39.99 19.605497 4.662997 34.013944 1.477281
2003-09-03 07:36:03 51°26.99 2°39.99 19.606799 4.662997 34.013944 1.477281
2003-09-03 07:36:09 51°26.99 2°39.99 19.60745 4.663103 34.014234 1.443571
2003-09-03 07:36:11 51°27 2°39.99 19.60745 4.663103 34.014234 1.443571
2003-09-03 07:36:19 51°27 2°39.99 19.607857 4.662575 34.011066 1.443571
2003-09-03 07:36:23 51°27 2°39.99 19.608101 4.662997 34.015088 1.477281
2003-09-03 07:36:29 51°27 2°39.98 19.607776 4.663103 34.017096 1.477281
2003-09-03 07:36:31 51°27 2°39.98 19.60802 4.66247 34.014209 1.443571
2003-09-03 07:36:39 51°27 2°39.98 19.609037 4.662575 34.014499 1.443571
2003-09-03 07:36:43 51°27 2°39.98 19.609037 4.662575 34.014499 1.443571
2003-09-03 07:36:49 51°27 2°39.98 19.610339 4.662575 34.013355 1.409862
2003-09-03 07:36:59 51°27 2°39.98 19.612374 4.662153 34.00876 1.477281
2003-09-03 07:37:05 51°27.01 2°39.98 19.613391 4.663419 34.019111 1.477281
2003-09-03 07:37:07 51°27.01 2°39.98 19.613431 4.662364 34.011629 1.409862
2003-09-03 07:37:15 51°27.01 2°39.98 19.613391 4.662786 34.013935 1.443571
2003-09-03 07:37:19 51°27.01 2°39.98 19.613391 4.662786 34.013935 1.443571
2003-09-03 07:37:25 51°27.01 2°39.98 19.614001 4.661625 34.005591 1.409862
2003-09-03 07:37:29 51°27.01 2°39.98 19.613676 4.66152 34.004156 1.342443
2003-09-03 07:37:35 51°27.01 2°39.98 19.613838 4.662258 34.00905 1.409862
2003-09-03 07:37:39 51°27.01 2°39.98 19.613838 4.662786 34.012219 1.376153
2003-09-03 07:37:45 51°27.02 2°39.98 19.614123 4.663103 34.01309 1.376153
2003-09-03 07:37:49 51°27.02 2°39.98 19.614123 4.663103 34.01309 1.376153
2003-09-03 07:37:55 51°27.02 2°39.97 19.614286 4.662997 34.013944 1.443571
2003-09-03 07:37:59 51°27.02 2°39.97 19.614815 4.662469 34.008487 1.409862
2003-09-03 07:38:05 51°27.02 2°39.97 19.614652 4.662786 34.012219 1.409862
2003-09-03 07:38:07 51°27.02 2°39.97 19.614001 4.662469 34.007915 1.443571
2003-09-03 07:38:15 51°27.02 2°39.97 19.614001 4.662469 34.007915 1.443571
2003-09-03 07:38:19 51°27.02 2°39.97 19.612536 4.66268 34.008496 1.376153
2003-09-03 07:38:25 51°27.03 2°39.97 19.61156 4.662575 34.008778 1.376153
2003-09-03 07:38:27 51°27.03 2°39.97 19.611275 4.662891 34.011365 1.376153
2003-09-03 07:38:35 51°27.03 2°39.97 19.611153 4.66268 34.009068 1.409862
2003-09-03 07:38:39 51°27.03 2°39.97 19.610542 4.663103 34.013662 1.409862
2003-09-03 07:38:45 51°27.03 2°39.97 19.610298 4.662891 34.010793 1.409862
2003-09-03 07:38:47 51°27.03 2°39.97 19.610298 4.662891 34.010793 1.409862
2003-09-03 07:38:55 51°27.03 2°39.97 19.609607 4.663103 34.01309 1.409862
2003-09-03 07:38:59 51°27.03 2°39.97 19.610136 4.662997 34.013944 1.443571
2003-09-03 07:39:05 51°27.04 2°39.97 19.610258 4.662258 34.006762 1.409862
2003-09-03 07:39:07 51°27.04 2°39.97 19.609281 4.661836 34.003884 1.443571
2003-09-03 07:39:15 51°27.04 2°39.97 19.608101 4.662469 34.009631 1.409862
2003-09-03 07:39:19 51°27.04 2°39.97 19.608101 4.662469 34.009631 1.409862
2003-09-03 07:39:25 51°27.04 2°39.96 19.605619 4.661414 34.003294 1.409862
2003-09-03 07:39:27 51°27.04 2°39.96 19.60452 4.662364 34.010485 1.443571
2003-09-03 07:39:35 51°27.05 2°39.95 19.60513 4.661625 34.002731 1.376153
2003-09-03 07:39:39 51°27.05 2°39.95 19.604968 4.662047 34.007325 1.443571
2003-09-03 07:39:45 51°27.06 2°39.94 19.603828 4.662047 34.006181 1.409862
2003-09-03 07:39:47 51°27.06 2°39.94 19.603828 4.662047 34.006181 1.409862
2003-09-03 07:39:55 51°27.07 2°39.93 19.604968 4.66268 34.011356 1.409862